<?xml version="1.0" encoding="UTF-8"?><gpx xmlns="http://www.topografix.com/GPX/1/1" version="1.1" creator="iOrient"><trk><name>Заснеженной тропой трейл (Online)</name><trkseg><trkpt lat="56.3836689" lon="43.8371275"><time>2023-09-30T12:41:58.277</time></trkpt><trkpt lat="56.3836927" lon="43.8371448"><time>2023-09-30T12:41:59.413</time></trkpt><trkpt lat="56.3837378" lon="43.8369926"><time>2023-09-30T12:42:01.207</time></trkpt><trkpt lat="56.3837768" lon="43.8368651"><time>2023-09-30T12:42:03.203</time></trkpt><trkpt lat="56.3838025" lon="43.8367629"><time>2023-09-30T12:42:05.217</time></trkpt><trkpt lat="56.3838095" lon="43.8366543"><time>2023-09-30T12:42:07.203</time></trkpt><trkpt lat="56.3837931" lon="43.8365125"><time>2023-09-30T12:42:10.217</time></trkpt><trkpt lat="56.3838219" lon="43.8363986"><time>2023-09-30T12:42:12.200</time></trkpt><trkpt lat="56.3839011" lon="43.8363803"><time>2023-09-30T12:42:14.217</time></trkpt><trkpt lat="56.3839398" lon="43.8364032"><time>2023-09-30T12:42:15.220</time></trkpt><trkpt lat="56.3839908" lon="43.8364776"><time>2023-09-30T12:42:16.223</time></trkpt><trkpt lat="56.3840696" lon="43.8365144"><time>2023-09-30T12:42:18.213</time></trkpt><trkpt lat="56.3841450" lon="43.8365878"><time>2023-09-30T12:42:20.207</time></trkpt><trkpt lat="56.3841882" lon="43.8366197"><time>2023-09-30T12:42:21.220</time></trkpt><trkpt lat="56.3842531" lon="43.8366711"><time>2023-09-30T12:42:23.223</time></trkpt><trkpt lat="56.3843219" lon="43.8367309"><time>2023-09-30T12:42:25.217</time></trkpt><trkpt lat="56.3843803" lon="43.8368231"><time>2023-09-30T12:42:27.220</time></trkpt><trkpt lat="56.3844209" lon="43.8368673"><time>2023-09-30T12:42:28.233</time></trkpt><trkpt lat="56.3844858" lon="43.8369270"><time>2023-09-30T12:42:30.237</time></trkpt><trkpt lat="56.3845298" lon="43.8369610"><time>2023-09-30T12:42:31.213</time></trkpt><trkpt lat="56.3845960" lon="43.8370328"><time>2023-09-30T12:42:33.213</time></trkpt><trkpt lat="56.3846557" lon="43.8371119"><time>2023-09-30T12:42:35.203</time></trkpt><trkpt lat="56.3847131" lon="43.8371890"><time>2023-09-30T12:42:37.220</time></trkpt><trkpt lat="56.3847618" lon="43.8372957"><time>2023-09-30T12:42:39.213</time></trkpt><trkpt lat="56.3847947" lon="43.8373992"><time>2023-09-30T12:42:41.213</time></trkpt><trkpt lat="56.3848349" lon="43.8375265"><time>2023-09-30T12:42:43.213</time></trkpt><trkpt lat="56.3848782" lon="43.8376351"><time>2023-09-30T12:42:45.230</time></trkpt><trkpt lat="56.3849178" lon="43.8377512"><time>2023-09-30T12:42:47.207</time></trkpt><trkpt lat="56.3849611" lon="43.8378656"><time>2023-09-30T12:42:49.210</time></trkpt><trkpt lat="56.3850006" lon="43.8379869"><time>2023-09-30T12:42:51.207</time></trkpt><trkpt lat="56.3850293" lon="43.8381117"><time>2023-09-30T12:42:53.217</time></trkpt><trkpt lat="56.3850575" lon="43.8382419"><time>2023-09-30T12:42:55.213</time></trkpt><trkpt lat="56.3850856" lon="43.8383606"><time>2023-09-30T12:42:57.230</time></trkpt><trkpt lat="56.3851272" lon="43.8384721"><time>2023-09-30T12:42:59.217</time></trkpt><trkpt lat="56.3851532" lon="43.8385893"><time>2023-09-30T12:43:01.233</time></trkpt><trkpt lat="56.3851606" lon="43.8386556"><time>2023-09-30T12:43:02.200</time></trkpt><trkpt lat="56.3851874" lon="43.8387792"><time>2023-09-30T12:43:04.217</time></trkpt><trkpt lat="56.3852250" lon="43.8388894"><time>2023-09-30T12:43:06.193</time></trkpt><trkpt lat="56.3852584" lon="43.8389936"><time>2023-09-30T12:43:08.220</time></trkpt><trkpt lat="56.3852993" lon="43.8390930"><time>2023-09-30T12:43:10.213</time></trkpt><trkpt lat="56.3853366" lon="43.8392066"><time>2023-09-30T12:43:12.187</time></trkpt><trkpt lat="56.3853713" lon="43.8393140"><time>2023-09-30T12:43:14.213</time></trkpt><trkpt lat="56.3853942" lon="43.8394355"><time>2023-09-30T12:43:16.193</time></trkpt><trkpt lat="56.3854148" lon="43.8395571"><time>2023-09-30T12:43:18.223</time></trkpt><trkpt lat="56.3854508" lon="43.8396601"><time>2023-09-30T12:43:20.220</time></trkpt><trkpt lat="56.3854903" lon="43.8397633"><time>2023-09-30T12:43:22.207</time></trkpt><trkpt lat="56.3855321" lon="43.8398664"><time>2023-09-30T12:43:24.220</time></trkpt><trkpt lat="56.3855713" lon="43.8399716"><time>2023-09-30T12:43:26.223</time></trkpt><trkpt lat="56.3856044" lon="43.8400755"><time>2023-09-30T12:43:28.223</time></trkpt><trkpt lat="56.3856386" lon="43.8401803"><time>2023-09-30T12:43:30.217</time></trkpt><trkpt lat="56.3856727" lon="43.8402832"><time>2023-09-30T12:43:32.207</time></trkpt><trkpt lat="56.3857051" lon="43.8403814"><time>2023-09-30T12:43:34.213</time></trkpt><trkpt lat="56.3857447" lon="43.8404738"><time>2023-09-30T12:43:36.220</time></trkpt><trkpt lat="56.3857955" lon="43.8405479"><time>2023-09-30T12:43:38.213</time></trkpt><trkpt lat="56.3858503" lon="43.8406077"><time>2023-09-30T12:43:40.217</time></trkpt><trkpt lat="56.3859085" lon="43.8406565"><time>2023-09-30T12:43:42.210</time></trkpt><trkpt lat="56.3859657" lon="43.8407038"><time>2023-09-30T12:43:44.207</time></trkpt><trkpt lat="56.3860155" lon="43.8407492"><time>2023-09-30T12:43:46.220</time></trkpt><trkpt lat="56.3860648" lon="43.8408053"><time>2023-09-30T12:43:48.213</time></trkpt><trkpt lat="56.3861140" lon="43.8408711"><time>2023-09-30T12:43:50.197</time></trkpt><trkpt lat="56.3861804" lon="43.8408888"><time>2023-09-30T12:43:52.200</time></trkpt><trkpt lat="56.3862436" lon="43.8409029"><time>2023-09-30T12:43:54.217</time></trkpt><trkpt lat="56.3863096" lon="43.8409182"><time>2023-09-30T12:43:56.220</time></trkpt><trkpt lat="56.3863682" lon="43.8409439"><time>2023-09-30T12:43:58.223</time></trkpt><trkpt lat="56.3864180" lon="43.8409909"><time>2023-09-30T12:44:00.217</time></trkpt><trkpt lat="56.3864767" lon="43.8410202"><time>2023-09-30T12:44:02.203</time></trkpt><trkpt lat="56.3865394" lon="43.8410749"><time>2023-09-30T12:44:04.217</time></trkpt><trkpt lat="56.3866054" lon="43.8411092"><time>2023-09-30T12:44:06.217</time></trkpt><trkpt lat="56.3866705" lon="43.8411425"><time>2023-09-30T12:44:08.217</time></trkpt><trkpt lat="56.3867344" lon="43.8411746"><time>2023-09-30T12:44:10.217</time></trkpt><trkpt lat="56.3867950" lon="43.8412068"><time>2023-09-30T12:44:12.203</time></trkpt><trkpt lat="56.3868581" lon="43.8412365"><time>2023-09-30T12:44:14.220</time></trkpt><trkpt lat="56.3869258" lon="43.8412453"><time>2023-09-30T12:44:16.227</time></trkpt><trkpt lat="56.3869879" lon="43.8412559"><time>2023-09-30T12:44:18.230</time></trkpt><trkpt lat="56.3870449" lon="43.8412820"><time>2023-09-30T12:44:20.207</time></trkpt><trkpt lat="56.3871080" lon="43.8413058"><time>2023-09-30T12:44:22.207</time></trkpt><trkpt lat="56.3871713" lon="43.8413336"><time>2023-09-30T12:44:24.223</time></trkpt><trkpt lat="56.3872368" lon="43.8413506"><time>2023-09-30T12:44:26.217</time></trkpt><trkpt lat="56.3873022" lon="43.8413869"><time>2023-09-30T12:44:28.217</time></trkpt><trkpt lat="56.3873655" lon="43.8414120"><time>2023-09-30T12:44:30.220</time></trkpt><trkpt lat="56.3874235" lon="43.8414296"><time>2023-09-30T12:44:32.207</time></trkpt><trkpt lat="56.3874780" lon="43.8414719"><time>2023-09-30T12:44:34.223</time></trkpt><trkpt lat="56.3875325" lon="43.8415103"><time>2023-09-30T12:44:36.217</time></trkpt><trkpt lat="56.3875936" lon="43.8415384"><time>2023-09-30T12:44:38.217</time></trkpt><trkpt lat="56.3876584" lon="43.8415660"><time>2023-09-30T12:44:40.217</time></trkpt><trkpt lat="56.3877174" lon="43.8416062"><time>2023-09-30T12:44:42.210</time></trkpt><trkpt lat="56.3877847" lon="43.8416512"><time>2023-09-30T12:44:44.217</time></trkpt><trkpt lat="56.3878464" lon="43.8416829"><time>2023-09-30T12:44:46.217</time></trkpt><trkpt lat="56.3879097" lon="43.8417010"><time>2023-09-30T12:44:48.217</time></trkpt><trkpt lat="56.3879702" lon="43.8417222"><time>2023-09-30T12:44:50.217</time></trkpt><trkpt lat="56.3880367" lon="43.8417403"><time>2023-09-30T12:44:52.197</time></trkpt><trkpt lat="56.3881055" lon="43.8417631"><time>2023-09-30T12:44:54.210</time></trkpt><trkpt lat="56.3881686" lon="43.8417903"><time>2023-09-30T12:44:56.220</time></trkpt><trkpt lat="56.3882318" lon="43.8418190"><time>2023-09-30T12:44:58.217</time></trkpt><trkpt lat="56.3882992" lon="43.8418432"><time>2023-09-30T12:45:00.220</time></trkpt><trkpt lat="56.3883634" lon="43.8418537"><time>2023-09-30T12:45:02.203</time></trkpt><trkpt lat="56.3884268" lon="43.8418667"><time>2023-09-30T12:45:04.220</time></trkpt><trkpt lat="56.3884943" lon="43.8418955"><time>2023-09-30T12:45:06.200</time></trkpt><trkpt lat="56.3885573" lon="43.8419153"><time>2023-09-30T12:45:08.223</time></trkpt><trkpt lat="56.3886227" lon="43.8419288"><time>2023-09-30T12:45:10.217</time></trkpt><trkpt lat="56.3886813" lon="43.8419591"><time>2023-09-30T12:45:12.210</time></trkpt><trkpt lat="56.3887400" lon="43.8419894"><time>2023-09-30T12:45:14.220</time></trkpt><trkpt lat="56.3888018" lon="43.8420163"><time>2023-09-30T12:45:16.193</time></trkpt><trkpt lat="56.3888617" lon="43.8420462"><time>2023-09-30T12:45:18.223</time></trkpt><trkpt lat="56.3889240" lon="43.8420983"><time>2023-09-30T12:45:20.217</time></trkpt><trkpt lat="56.3889899" lon="43.8421375"><time>2023-09-30T12:45:22.210</time></trkpt><trkpt lat="56.3890240" lon="43.8421539"><time>2023-09-30T12:45:23.220</time></trkpt><trkpt lat="56.3890900" lon="43.8421681"><time>2023-09-30T12:45:25.220</time></trkpt><trkpt lat="56.3891523" lon="43.8421902"><time>2023-09-30T12:45:27.193</time></trkpt><trkpt lat="56.3892188" lon="43.8422225"><time>2023-09-30T12:45:29.197</time></trkpt><trkpt lat="56.3892836" lon="43.8422470"><time>2023-09-30T12:45:31.207</time></trkpt><trkpt lat="56.3893518" lon="43.8422676"><time>2023-09-30T12:45:33.203</time></trkpt><trkpt lat="56.3894183" lon="43.8422775"><time>2023-09-30T12:45:35.193</time></trkpt><trkpt lat="56.3894805" lon="43.8423051"><time>2023-09-30T12:45:37.217</time></trkpt><trkpt lat="56.3895382" lon="43.8423362"><time>2023-09-30T12:45:39.207</time></trkpt><trkpt lat="56.3895992" lon="43.8423699"><time>2023-09-30T12:45:41.217</time></trkpt><trkpt lat="56.3896579" lon="43.8424225"><time>2023-09-30T12:45:43.223</time></trkpt><trkpt lat="56.3897112" lon="43.8424758"><time>2023-09-30T12:45:45.217</time></trkpt><trkpt lat="56.3897641" lon="43.8425207"><time>2023-09-30T12:45:47.217</time></trkpt><trkpt lat="56.3898195" lon="43.8425664"><time>2023-09-30T12:45:49.230</time></trkpt><trkpt lat="56.3898751" lon="43.8426216"><time>2023-09-30T12:45:51.237</time></trkpt><trkpt lat="56.3899016" lon="43.8426488"><time>2023-09-30T12:45:52.220</time></trkpt><trkpt lat="56.3899556" lon="43.8426997"><time>2023-09-30T12:45:54.223</time></trkpt><trkpt lat="56.3900135" lon="43.8427386"><time>2023-09-30T12:45:56.213</time></trkpt><trkpt lat="56.3900652" lon="43.8427802"><time>2023-09-30T12:45:58.217</time></trkpt><trkpt lat="56.3901186" lon="43.8428334"><time>2023-09-30T12:46:00.197</time></trkpt><trkpt lat="56.3901664" lon="43.8428916"><time>2023-09-30T12:46:02.217</time></trkpt><trkpt lat="56.3902209" lon="43.8429516"><time>2023-09-30T12:46:04.217</time></trkpt><trkpt lat="56.3902738" lon="43.8430211"><time>2023-09-30T12:46:06.230</time></trkpt><trkpt lat="56.3902992" lon="43.8430507"><time>2023-09-30T12:46:07.223</time></trkpt><trkpt lat="56.3903488" lon="43.8431154"><time>2023-09-30T12:46:09.223</time></trkpt><trkpt lat="56.3904020" lon="43.8431727"><time>2023-09-30T12:46:11.203</time></trkpt><trkpt lat="56.3904584" lon="43.8432302"><time>2023-09-30T12:46:13.220</time></trkpt><trkpt lat="56.3905081" lon="43.8432954"><time>2023-09-30T12:46:15.207</time></trkpt><trkpt lat="56.3905597" lon="43.8433600"><time>2023-09-30T12:46:17.233</time></trkpt><trkpt lat="56.3905597" lon="43.8433600"><time>2023-09-30T12:46:17.270</time></trkpt><trkpt lat="56.3906125" lon="43.8434339"><time>2023-09-30T12:46:19.220</time></trkpt><trkpt lat="56.3906270" lon="43.8434773"><time>2023-09-30T12:46:20.217</time></trkpt><trkpt lat="56.3906002" lon="43.8435557"><time>2023-09-30T12:46:22.213</time></trkpt><trkpt lat="56.3905701" lon="43.8436410"><time>2023-09-30T12:46:24.217</time></trkpt><trkpt lat="56.3905377" lon="43.8437453"><time>2023-09-30T12:46:26.220</time></trkpt><trkpt lat="56.3904965" lon="43.8438478"><time>2023-09-30T12:46:28.217</time></trkpt><trkpt lat="56.3904656" lon="43.8439596"><time>2023-09-30T12:46:30.223</time></trkpt><trkpt lat="56.3904304" lon="43.8440720"><time>2023-09-30T12:46:32.197</time></trkpt><trkpt lat="56.3903963" lon="43.8441742"><time>2023-09-30T12:46:34.220</time></trkpt><trkpt lat="56.3903649" lon="43.8442795"><time>2023-09-30T12:46:36.217</time></trkpt><trkpt lat="56.3903398" lon="43.8443913"><time>2023-09-30T12:46:38.223</time></trkpt><trkpt lat="56.3903138" lon="43.8445098"><time>2023-09-30T12:46:40.217</time></trkpt><trkpt lat="56.3902904" lon="43.8446307"><time>2023-09-30T12:46:42.207</time></trkpt><trkpt lat="56.3902560" lon="43.8447475"><time>2023-09-30T12:46:44.220</time></trkpt><trkpt lat="56.3902069" lon="43.8448423"><time>2023-09-30T12:46:46.220</time></trkpt><trkpt lat="56.3901562" lon="43.8449214"><time>2023-09-30T12:46:48.217</time></trkpt><trkpt lat="56.3901129" lon="43.8450151"><time>2023-09-30T12:46:50.213</time></trkpt><trkpt lat="56.3900669" lon="43.8451081"><time>2023-09-30T12:46:52.207</time></trkpt><trkpt lat="56.3900337" lon="43.8452130"><time>2023-09-30T12:46:54.220</time></trkpt><trkpt lat="56.3900040" lon="43.8453052"><time>2023-09-30T12:46:56.200</time></trkpt><trkpt lat="56.3899616" lon="43.8453965"><time>2023-09-30T12:46:58.217</time></trkpt><trkpt lat="56.3898979" lon="43.8454308"><time>2023-09-30T12:47:00.210</time></trkpt><trkpt lat="56.3898291" lon="43.8454025"><time>2023-09-30T12:47:02.217</time></trkpt><trkpt lat="56.3897642" lon="43.8453832"><time>2023-09-30T12:47:04.207</time></trkpt><trkpt lat="56.3897075" lon="43.8453451"><time>2023-09-30T12:47:06.213</time></trkpt><trkpt lat="56.3896459" lon="43.8452971"><time>2023-09-30T12:47:08.203</time></trkpt><trkpt lat="56.3895800" lon="43.8452779"><time>2023-09-30T12:47:10.193</time></trkpt><trkpt lat="56.3895113" lon="43.8452722"><time>2023-09-30T12:47:12.197</time></trkpt><trkpt lat="56.3894484" lon="43.8452829"><time>2023-09-30T12:47:14.200</time></trkpt><trkpt lat="56.3893901" lon="43.8453030"><time>2023-09-30T12:47:16.200</time></trkpt><trkpt lat="56.3893396" lon="43.8453745"><time>2023-09-30T12:47:18.210</time></trkpt><trkpt lat="56.3892819" lon="43.8454213"><time>2023-09-30T12:47:20.203</time></trkpt><trkpt lat="56.3892233" lon="43.8454487"><time>2023-09-30T12:47:22.203</time></trkpt><trkpt lat="56.3891692" lon="43.8454748"><time>2023-09-30T12:47:24.207</time></trkpt><trkpt lat="56.3891131" lon="43.8455004"><time>2023-09-30T12:47:26.207</time></trkpt><trkpt lat="56.3890533" lon="43.8455109"><time>2023-09-30T12:47:28.203</time></trkpt><trkpt lat="56.3889888" lon="43.8455160"><time>2023-09-30T12:47:30.210</time></trkpt><trkpt lat="56.3889270" lon="43.8455259"><time>2023-09-30T12:47:32.200</time></trkpt><trkpt lat="56.3888644" lon="43.8455023"><time>2023-09-30T12:47:34.217</time></trkpt><trkpt lat="56.3888015" lon="43.8455106"><time>2023-09-30T12:47:36.210</time></trkpt><trkpt lat="56.3887481" lon="43.8455872"><time>2023-09-30T12:47:38.207</time></trkpt><trkpt lat="56.3886996" lon="43.8456638"><time>2023-09-30T12:47:40.193</time></trkpt><trkpt lat="56.3886566" lon="43.8457265"><time>2023-09-30T12:47:42.200</time></trkpt><trkpt lat="56.3886023" lon="43.8457720"><time>2023-09-30T12:47:44.207</time></trkpt><trkpt lat="56.3885467" lon="43.8457955"><time>2023-09-30T12:47:46.203</time></trkpt><trkpt lat="56.3884883" lon="43.8458391"><time>2023-09-30T12:47:48.203</time></trkpt><trkpt lat="56.3884341" lon="43.8459185"><time>2023-09-30T12:47:50.210</time></trkpt><trkpt lat="56.3883881" lon="43.8460167"><time>2023-09-30T12:47:52.213</time></trkpt><trkpt lat="56.3883389" lon="43.8461101"><time>2023-09-30T12:47:54.207</time></trkpt><trkpt lat="56.3882957" lon="43.8462078"><time>2023-09-30T12:47:56.207</time></trkpt><trkpt lat="56.3882279" lon="43.8462495"><time>2023-09-30T12:47:58.207</time></trkpt><trkpt lat="56.3881651" lon="43.8462491"><time>2023-09-30T12:48:00.207</time></trkpt><trkpt lat="56.3881074" lon="43.8462817"><time>2023-09-30T12:48:02.213</time></trkpt><trkpt lat="56.3880519" lon="43.8463348"><time>2023-09-30T12:48:04.217</time></trkpt><trkpt lat="56.3879911" lon="43.8463798"><time>2023-09-30T12:48:06.217</time></trkpt><trkpt lat="56.3879361" lon="43.8464158"><time>2023-09-30T12:48:08.217</time></trkpt><trkpt lat="56.3878886" lon="43.8464797"><time>2023-09-30T12:48:10.207</time></trkpt><trkpt lat="56.3878357" lon="43.8465496"><time>2023-09-30T12:48:12.200</time></trkpt><trkpt lat="56.3877755" lon="43.8466059"><time>2023-09-30T12:48:14.217</time></trkpt><trkpt lat="56.3877156" lon="43.8466484"><time>2023-09-30T12:48:16.223</time></trkpt><trkpt lat="56.3876556" lon="43.8466819"><time>2023-09-30T12:48:18.227</time></trkpt><trkpt lat="56.3876054" lon="43.8467254"><time>2023-09-30T12:48:20.227</time></trkpt><trkpt lat="56.3875638" lon="43.8467869"><time>2023-09-30T12:48:22.210</time></trkpt><trkpt lat="56.3875022" lon="43.8468559"><time>2023-09-30T12:48:24.213</time></trkpt><trkpt lat="56.3874443" lon="43.8469443"><time>2023-09-30T12:48:26.223</time></trkpt><trkpt lat="56.3873806" lon="43.8469994"><time>2023-09-30T12:48:28.220</time></trkpt><trkpt lat="56.3873009" lon="43.8470039"><time>2023-09-30T12:48:30.233</time></trkpt><trkpt lat="56.3872325" lon="43.8470406"><time>2023-09-30T12:48:32.217</time></trkpt><trkpt lat="56.3871784" lon="43.8471038"><time>2023-09-30T12:48:34.223</time></trkpt><trkpt lat="56.3871186" lon="43.8471561"><time>2023-09-30T12:48:36.213</time></trkpt><trkpt lat="56.3870555" lon="43.8472097"><time>2023-09-30T12:48:38.227</time></trkpt><trkpt lat="56.3869950" lon="43.8472705"><time>2023-09-30T12:48:40.217</time></trkpt><trkpt lat="56.3869416" lon="43.8473404"><time>2023-09-30T12:48:42.227</time></trkpt><trkpt lat="56.3868883" lon="43.8474023"><time>2023-09-30T12:48:44.207</time></trkpt><trkpt lat="56.3868288" lon="43.8474556"><time>2023-09-30T12:48:46.227</time></trkpt><trkpt lat="56.3867667" lon="43.8475116"><time>2023-09-30T12:48:48.220</time></trkpt><trkpt lat="56.3867104" lon="43.8475674"><time>2023-09-30T12:48:50.210</time></trkpt><trkpt lat="56.3866614" lon="43.8476364"><time>2023-09-30T12:48:52.230</time></trkpt><trkpt lat="56.3866101" lon="43.8476889"><time>2023-09-30T12:48:54.210</time></trkpt><trkpt lat="56.3865502" lon="43.8477218"><time>2023-09-30T12:48:56.227</time></trkpt><trkpt lat="56.3864944" lon="43.8477623"><time>2023-09-30T12:48:58.220</time></trkpt><trkpt lat="56.3864423" lon="43.8478009"><time>2023-09-30T12:49:00.213</time></trkpt><trkpt lat="56.3863940" lon="43.8478518"><time>2023-09-30T12:49:02.210</time></trkpt><trkpt lat="56.3863391" lon="43.8478858"><time>2023-09-30T12:49:04.200</time></trkpt><trkpt lat="56.3862805" lon="43.8479211"><time>2023-09-30T12:49:06.210</time></trkpt><trkpt lat="56.3862234" lon="43.8479734"><time>2023-09-30T12:49:08.220</time></trkpt><trkpt lat="56.3861636" lon="43.8480219"><time>2023-09-30T12:49:10.220</time></trkpt><trkpt lat="56.3861011" lon="43.8480584"><time>2023-09-30T12:49:12.210</time></trkpt><trkpt lat="56.3860410" lon="43.8480871"><time>2023-09-30T12:49:14.223</time></trkpt><trkpt lat="56.3859834" lon="43.8481443"><time>2023-09-30T12:49:16.210</time></trkpt><trkpt lat="56.3859237" lon="43.8481980"><time>2023-09-30T12:49:18.227</time></trkpt><trkpt lat="56.3858663" lon="43.8482526"><time>2023-09-30T12:49:20.217</time></trkpt><trkpt lat="56.3858105" lon="43.8483117"><time>2023-09-30T12:49:22.220</time></trkpt><trkpt lat="56.3857550" lon="43.8483697"><time>2023-09-30T12:49:24.227</time></trkpt><trkpt lat="56.3857046" lon="43.8484432"><time>2023-09-30T12:49:26.227</time></trkpt><trkpt lat="56.3856518" lon="43.8484962"><time>2023-09-30T12:49:28.220</time></trkpt><trkpt lat="56.3856008" lon="43.8485375"><time>2023-09-30T12:49:30.227</time></trkpt><trkpt lat="56.3855771" lon="43.8486333"><time>2023-09-30T12:49:32.217</time></trkpt><trkpt lat="56.3855263" lon="43.8487040"><time>2023-09-30T12:49:34.223</time></trkpt><trkpt lat="56.3854602" lon="43.8487352"><time>2023-09-30T12:49:36.217</time></trkpt><trkpt lat="56.3854009" lon="43.8487687"><time>2023-09-30T12:49:38.233</time></trkpt><trkpt lat="56.3853443" lon="43.8488134"><time>2023-09-30T12:49:40.207</time></trkpt><trkpt lat="56.3852843" lon="43.8488452"><time>2023-09-30T12:49:42.213</time></trkpt><trkpt lat="56.3852271" lon="43.8489146"><time>2023-09-30T12:49:44.227</time></trkpt><trkpt lat="56.3851680" lon="43.8489742"><time>2023-09-30T12:49:46.217</time></trkpt><trkpt lat="56.3851062" lon="43.8490224"><time>2023-09-30T12:49:48.220</time></trkpt><trkpt lat="56.3850515" lon="43.8490876"><time>2023-09-30T12:49:50.220</time></trkpt><trkpt lat="56.3849999" lon="43.8491509"><time>2023-09-30T12:49:52.210</time></trkpt><trkpt lat="56.3849387" lon="43.8492090"><time>2023-09-30T12:49:54.203</time></trkpt><trkpt lat="56.3848792" lon="43.8492678"><time>2023-09-30T12:49:56.223</time></trkpt><trkpt lat="56.3848241" lon="43.8493441"><time>2023-09-30T12:49:58.227</time></trkpt><trkpt lat="56.3847756" lon="43.8494252"><time>2023-09-30T12:50:00.207</time></trkpt><trkpt lat="56.3847258" lon="43.8495038"><time>2023-09-30T12:50:02.207</time></trkpt><trkpt lat="56.3846771" lon="43.8495801"><time>2023-09-30T12:50:04.217</time></trkpt><trkpt lat="56.3846314" lon="43.8496618"><time>2023-09-30T12:50:06.220</time></trkpt><trkpt lat="56.3845893" lon="43.8497463"><time>2023-09-30T12:50:08.217</time></trkpt><trkpt lat="56.3845375" lon="43.8498177"><time>2023-09-30T12:50:10.203</time></trkpt><trkpt lat="56.3844839" lon="43.8498930"><time>2023-09-30T12:50:12.213</time></trkpt><trkpt lat="56.3844366" lon="43.8499722"><time>2023-09-30T12:50:14.227</time></trkpt><trkpt lat="56.3843919" lon="43.8500516"><time>2023-09-30T12:50:16.217</time></trkpt><trkpt lat="56.3843515" lon="43.8501380"><time>2023-09-30T12:50:18.223</time></trkpt><trkpt lat="56.3843117" lon="43.8502308"><time>2023-09-30T12:50:20.217</time></trkpt><trkpt lat="56.3842687" lon="43.8503118"><time>2023-09-30T12:50:22.220</time></trkpt><trkpt lat="56.3842210" lon="43.8503907"><time>2023-09-30T12:50:24.213</time></trkpt><trkpt lat="56.3841717" lon="43.8504678"><time>2023-09-30T12:50:26.220</time></trkpt><trkpt lat="56.3841167" lon="43.8505214"><time>2023-09-30T12:50:28.223</time></trkpt><trkpt lat="56.3840588" lon="43.8505653"><time>2023-09-30T12:50:30.217</time></trkpt><trkpt lat="56.3839989" lon="43.8505916"><time>2023-09-30T12:50:32.217</time></trkpt><trkpt lat="56.3839529" lon="43.8506364"><time>2023-09-30T12:50:34.190</time></trkpt><trkpt lat="56.3839059" lon="43.8506805"><time>2023-09-30T12:50:36.220</time></trkpt><trkpt lat="56.3838858" lon="43.8507001"><time>2023-09-30T12:50:37.213</time></trkpt><trkpt lat="56.3839204" lon="43.8506478"><time>2023-09-30T12:50:41.227</time></trkpt><trkpt lat="56.3839325" lon="43.8506332"><time>2023-09-30T12:50:42.213</time></trkpt><trkpt lat="56.3839768" lon="43.8506661"><time>2023-09-30T12:50:45.220</time></trkpt><trkpt lat="56.3839673" lon="43.8507683"><time>2023-09-30T12:50:47.240</time></trkpt><trkpt lat="56.3839582" lon="43.8508242"><time>2023-09-30T12:50:48.220</time></trkpt><trkpt lat="56.3839305" lon="43.8509260"><time>2023-09-30T12:50:50.227</time></trkpt><trkpt lat="56.3839048" lon="43.8510198"><time>2023-09-30T12:50:52.213</time></trkpt><trkpt lat="56.3838831" lon="43.8511124"><time>2023-09-30T12:50:54.220</time></trkpt><trkpt lat="56.3838638" lon="43.8512128"><time>2023-09-30T12:50:56.227</time></trkpt><trkpt lat="56.3838514" lon="43.8513222"><time>2023-09-30T12:50:58.210</time></trkpt><trkpt lat="56.3838308" lon="43.8514316"><time>2023-09-30T12:51:00.207</time></trkpt><trkpt lat="56.3838103" lon="43.8515513"><time>2023-09-30T12:51:02.203</time></trkpt><trkpt lat="56.3837841" lon="43.8516654"><time>2023-09-30T12:51:04.220</time></trkpt><trkpt lat="56.3837583" lon="43.8517723"><time>2023-09-30T12:51:06.220</time></trkpt><trkpt lat="56.3837147" lon="43.8518626"><time>2023-09-30T12:51:08.220</time></trkpt><trkpt lat="56.3836743" lon="43.8519480"><time>2023-09-30T12:51:10.223</time></trkpt><trkpt lat="56.3836278" lon="43.8520249"><time>2023-09-30T12:51:12.217</time></trkpt><trkpt lat="56.3835872" lon="43.8521073"><time>2023-09-30T12:51:14.217</time></trkpt><trkpt lat="56.3835493" lon="43.8521954"><time>2023-09-30T12:51:16.237</time></trkpt><trkpt lat="56.3835349" lon="43.8522398"><time>2023-09-30T12:51:17.217</time></trkpt><trkpt lat="56.3835081" lon="43.8523249"><time>2023-09-30T12:51:19.223</time></trkpt><trkpt lat="56.3834836" lon="43.8524152"><time>2023-09-30T12:51:21.207</time></trkpt><trkpt lat="56.3834575" lon="43.8525099"><time>2023-09-30T12:51:23.230</time></trkpt><trkpt lat="56.3834264" lon="43.8526053"><time>2023-09-30T12:51:25.210</time></trkpt><trkpt lat="56.3833924" lon="43.8526972"><time>2023-09-30T12:51:27.210</time></trkpt><trkpt lat="56.3833584" lon="43.8527880"><time>2023-09-30T12:51:29.227</time></trkpt><trkpt lat="56.3833264" lon="43.8528716"><time>2023-09-30T12:51:31.220</time></trkpt><trkpt lat="56.3833141" lon="43.8529208"><time>2023-09-30T12:51:32.197</time></trkpt><trkpt lat="56.3832893" lon="43.8530241"><time>2023-09-30T12:51:34.220</time></trkpt><trkpt lat="56.3832582" lon="43.8531215"><time>2023-09-30T12:51:36.223</time></trkpt><trkpt lat="56.3832268" lon="43.8532140"><time>2023-09-30T12:51:38.213</time></trkpt><trkpt lat="56.3831985" lon="43.8533102"><time>2023-09-30T12:51:40.227</time></trkpt><trkpt lat="56.3831775" lon="43.8534133"><time>2023-09-30T12:51:42.220</time></trkpt><trkpt lat="56.3831567" lon="43.8535230"><time>2023-09-30T12:51:44.233</time></trkpt><trkpt lat="56.3831567" lon="43.8535230"><time>2023-09-30T12:51:44.273</time></trkpt><trkpt lat="56.3831192" lon="43.8536178"><time>2023-09-30T12:51:46.243</time></trkpt><trkpt lat="56.3831092" lon="43.8536663"><time>2023-09-30T12:51:47.220</time></trkpt><trkpt lat="56.3831094" lon="43.8537580"><time>2023-09-30T12:51:49.217</time></trkpt><trkpt lat="56.3831357" lon="43.8538312"><time>2023-09-30T12:51:52.210</time></trkpt><trkpt lat="56.3831579" lon="43.8539251"><time>2023-09-30T12:51:56.220</time></trkpt><trkpt lat="56.3831905" lon="43.8540001"><time>2023-09-30T12:52:00.227</time></trkpt><trkpt lat="56.3832165" lon="43.8540917"><time>2023-09-30T12:52:05.220</time></trkpt><trkpt lat="56.3832327" lon="43.8541705"><time>2023-09-30T12:52:08.220</time></trkpt><trkpt lat="56.3832441" lon="43.8542610"><time>2023-09-30T12:52:11.203</time></trkpt><trkpt lat="56.3832643" lon="43.8543467"><time>2023-09-30T12:52:13.220</time></trkpt><trkpt lat="56.3833033" lon="43.8544331"><time>2023-09-30T12:52:15.233</time></trkpt><trkpt lat="56.3833395" lon="43.8545346"><time>2023-09-30T12:52:17.220</time></trkpt><trkpt lat="56.3833797" lon="43.8546289"><time>2023-09-30T12:52:19.207</time></trkpt><trkpt lat="56.3834104" lon="43.8547253"><time>2023-09-30T12:52:21.217</time></trkpt><trkpt lat="56.3834372" lon="43.8548271"><time>2023-09-30T12:52:23.203</time></trkpt><trkpt lat="56.3834449" lon="43.8549349"><time>2023-09-30T12:52:25.220</time></trkpt><trkpt lat="56.3834400" lon="43.8550527"><time>2023-09-30T12:52:27.223</time></trkpt><trkpt lat="56.3834469" lon="43.8551705"><time>2023-09-30T12:52:29.223</time></trkpt><trkpt lat="56.3834843" lon="43.8552480"><time>2023-09-30T12:52:31.227</time></trkpt><trkpt lat="56.3835383" lon="43.8552531"><time>2023-09-30T12:52:33.203</time></trkpt><trkpt lat="56.3835761" lon="43.8552051"><time>2023-09-30T12:52:35.220</time></trkpt><trkpt lat="56.3836337" lon="43.8551383"><time>2023-09-30T12:52:38.220</time></trkpt><trkpt lat="56.3836775" lon="43.8550846"><time>2023-09-30T12:52:40.223</time></trkpt><trkpt lat="56.3837176" lon="43.8550411"><time>2023-09-30T12:52:42.227</time></trkpt><trkpt lat="56.3837698" lon="43.8549790"><time>2023-09-30T12:52:44.220</time></trkpt><trkpt lat="56.3838328" lon="43.8549346"><time>2023-09-30T12:52:46.230</time></trkpt><trkpt lat="56.3839045" lon="43.8548898"><time>2023-09-30T12:52:48.223</time></trkpt><trkpt lat="56.3839683" lon="43.8548297"><time>2023-09-30T12:52:50.223</time></trkpt><trkpt lat="56.3840261" lon="43.8547741"><time>2023-09-30T12:52:52.227</time></trkpt><trkpt lat="56.3840779" lon="43.8547177"><time>2023-09-30T12:52:54.230</time></trkpt><trkpt lat="56.3841419" lon="43.8546877"><time>2023-09-30T12:52:56.220</time></trkpt><trkpt lat="56.3842098" lon="43.8546463"><time>2023-09-30T12:52:58.220</time></trkpt><trkpt lat="56.3842792" lon="43.8546251"><time>2023-09-30T12:53:00.213</time></trkpt><trkpt lat="56.3843467" lon="43.8546132"><time>2023-09-30T12:53:02.213</time></trkpt><trkpt lat="56.3844096" lon="43.8545997"><time>2023-09-30T12:53:04.217</time></trkpt><trkpt lat="56.3844709" lon="43.8545832"><time>2023-09-30T12:53:06.217</time></trkpt><trkpt lat="56.3845279" lon="43.8545388"><time>2023-09-30T12:53:08.217</time></trkpt><trkpt lat="56.3845821" lon="43.8545508"><time>2023-09-30T12:53:10.220</time></trkpt><trkpt lat="56.3846326" lon="43.8545504"><time>2023-09-30T12:53:12.210</time></trkpt><trkpt lat="56.3846834" lon="43.8545270"><time>2023-09-30T12:53:14.220</time></trkpt><trkpt lat="56.3847372" lon="43.8544926"><time>2023-09-30T12:53:16.220</time></trkpt><trkpt lat="56.3847853" lon="43.8544212"><time>2023-09-30T12:53:18.227</time></trkpt><trkpt lat="56.3848312" lon="43.8543453"><time>2023-09-30T12:53:20.227</time></trkpt><trkpt lat="56.3848665" lon="43.8542547"><time>2023-09-30T12:53:22.217</time></trkpt><trkpt lat="56.3848955" lon="43.8541538"><time>2023-09-30T12:53:24.227</time></trkpt><trkpt lat="56.3849195" lon="43.8540455"><time>2023-09-30T12:53:26.230</time></trkpt><trkpt lat="56.3849494" lon="43.8539394"><time>2023-09-30T12:53:28.223</time></trkpt><trkpt lat="56.3849891" lon="43.8538428"><time>2023-09-30T12:53:30.220</time></trkpt><trkpt lat="56.3850437" lon="43.8537579"><time>2023-09-30T12:53:32.227</time></trkpt><trkpt lat="56.3850910" lon="43.8536729"><time>2023-09-30T12:53:34.220</time></trkpt><trkpt lat="56.3851479" lon="43.8536087"><time>2023-09-30T12:53:36.220</time></trkpt><trkpt lat="56.3852071" lon="43.8535563"><time>2023-09-30T12:53:38.217</time></trkpt><trkpt lat="56.3852639" lon="43.8535061"><time>2023-09-30T12:53:40.217</time></trkpt><trkpt lat="56.3853231" lon="43.8534606"><time>2023-09-30T12:53:42.217</time></trkpt><trkpt lat="56.3853820" lon="43.8534309"><time>2023-09-30T12:53:44.240</time></trkpt><trkpt lat="56.3854380" lon="43.8533906"><time>2023-09-30T12:53:46.217</time></trkpt><trkpt lat="56.3854917" lon="43.8533814"><time>2023-09-30T12:53:48.207</time></trkpt><trkpt lat="56.3855539" lon="43.8533907"><time>2023-09-30T12:53:50.223</time></trkpt><trkpt lat="56.3856155" lon="43.8533815"><time>2023-09-30T12:53:52.227</time></trkpt><trkpt lat="56.3856735" lon="43.8533471"><time>2023-09-30T12:53:54.223</time></trkpt><trkpt lat="56.3857343" lon="43.8533085"><time>2023-09-30T12:53:56.223</time></trkpt><trkpt lat="56.3857971" lon="43.8532600"><time>2023-09-30T12:53:58.213</time></trkpt><trkpt lat="56.3858578" lon="43.8532236"><time>2023-09-30T12:54:00.220</time></trkpt><trkpt lat="56.3859147" lon="43.8531871"><time>2023-09-30T12:54:02.210</time></trkpt><trkpt lat="56.3859739" lon="43.8531525"><time>2023-09-30T12:54:04.207</time></trkpt><trkpt lat="56.3860271" lon="43.8531032"><time>2023-09-30T12:54:06.227</time></trkpt><trkpt lat="56.3860798" lon="43.8530429"><time>2023-09-30T12:54:08.220</time></trkpt><trkpt lat="56.3861417" lon="43.8529922"><time>2023-09-30T12:54:10.217</time></trkpt><trkpt lat="56.3862069" lon="43.8529447"><time>2023-09-30T12:54:12.220</time></trkpt><trkpt lat="56.3862653" lon="43.8528924"><time>2023-09-30T12:54:14.227</time></trkpt><trkpt lat="56.3863211" lon="43.8528400"><time>2023-09-30T12:54:16.220</time></trkpt><trkpt lat="56.3863742" lon="43.8527853"><time>2023-09-30T12:54:18.220</time></trkpt><trkpt lat="56.3864259" lon="43.8527290"><time>2023-09-30T12:54:20.197</time></trkpt><trkpt lat="56.3864787" lon="43.8526731"><time>2023-09-30T12:54:22.223</time></trkpt><trkpt lat="56.3865280" lon="43.8525976"><time>2023-09-30T12:54:24.217</time></trkpt><trkpt lat="56.3865671" lon="43.8525073"><time>2023-09-30T12:54:26.203</time></trkpt><trkpt lat="56.3866186" lon="43.8524430"><time>2023-09-30T12:54:28.220</time></trkpt><trkpt lat="56.3866703" lon="43.8523789"><time>2023-09-30T12:54:30.207</time></trkpt><trkpt lat="56.3867247" lon="43.8523179"><time>2023-09-30T12:54:32.210</time></trkpt><trkpt lat="56.3867779" lon="43.8522497"><time>2023-09-30T12:54:34.217</time></trkpt><trkpt lat="56.3868262" lon="43.8521678"><time>2023-09-30T12:54:36.210</time></trkpt><trkpt lat="56.3868703" lon="43.8520901"><time>2023-09-30T12:54:38.210</time></trkpt><trkpt lat="56.3869183" lon="43.8520198"><time>2023-09-30T12:54:40.217</time></trkpt><trkpt lat="56.3869715" lon="43.8519547"><time>2023-09-30T12:54:42.223</time></trkpt><trkpt lat="56.3870255" lon="43.8518976"><time>2023-09-30T12:54:44.220</time></trkpt><trkpt lat="56.3870839" lon="43.8518548"><time>2023-09-30T12:54:46.223</time></trkpt><trkpt lat="56.3871398" lon="43.8518100"><time>2023-09-30T12:54:48.217</time></trkpt><trkpt lat="56.3871854" lon="43.8517483"><time>2023-09-30T12:54:50.227</time></trkpt><trkpt lat="56.3872294" lon="43.8516753"><time>2023-09-30T12:54:52.223</time></trkpt><trkpt lat="56.3872748" lon="43.8516064"><time>2023-09-30T12:54:54.227</time></trkpt><trkpt lat="56.3873239" lon="43.8515376"><time>2023-09-30T12:54:56.227</time></trkpt><trkpt lat="56.3873628" lon="43.8514592"><time>2023-09-30T12:54:58.223</time></trkpt><trkpt lat="56.3874133" lon="43.8514119"><time>2023-09-30T12:55:00.213</time></trkpt><trkpt lat="56.3874574" lon="43.8513440"><time>2023-09-30T12:55:02.220</time></trkpt><trkpt lat="56.3875021" lon="43.8512739"><time>2023-09-30T12:55:04.217</time></trkpt><trkpt lat="56.3875532" lon="43.8512186"><time>2023-09-30T12:55:06.220</time></trkpt><trkpt lat="56.3876039" lon="43.8511639"><time>2023-09-30T12:55:08.203</time></trkpt><trkpt lat="56.3876547" lon="43.8511109"><time>2023-09-30T12:55:10.220</time></trkpt><trkpt lat="56.3877018" lon="43.8510565"><time>2023-09-30T12:55:12.220</time></trkpt><trkpt lat="56.3877506" lon="43.8509986"><time>2023-09-30T12:55:14.220</time></trkpt><trkpt lat="56.3878014" lon="43.8509483"><time>2023-09-30T12:55:16.220</time></trkpt><trkpt lat="56.3878545" lon="43.8508969"><time>2023-09-30T12:55:18.217</time></trkpt><trkpt lat="56.3879107" lon="43.8508473"><time>2023-09-30T12:55:20.200</time></trkpt><trkpt lat="56.3879694" lon="43.8508055"><time>2023-09-30T12:55:22.227</time></trkpt><trkpt lat="56.3880281" lon="43.8507722"><time>2023-09-30T12:55:24.220</time></trkpt><trkpt lat="56.3880846" lon="43.8507332"><time>2023-09-30T12:55:26.223</time></trkpt><trkpt lat="56.3881353" lon="43.8506720"><time>2023-09-30T12:55:28.227</time></trkpt><trkpt lat="56.3881811" lon="43.8505964"><time>2023-09-30T12:55:30.220</time></trkpt><trkpt lat="56.3882235" lon="43.8505201"><time>2023-09-30T12:55:32.210</time></trkpt><trkpt lat="56.3882645" lon="43.8504413"><time>2023-09-30T12:55:34.213</time></trkpt><trkpt lat="56.3883058" lon="43.8503663"><time>2023-09-30T12:55:36.213</time></trkpt><trkpt lat="56.3883422" lon="43.8502859"><time>2023-09-30T12:55:38.220</time></trkpt><trkpt lat="56.3883844" lon="43.8502214"><time>2023-09-30T12:55:40.210</time></trkpt><trkpt lat="56.3884387" lon="43.8501788"><time>2023-09-30T12:55:42.217</time></trkpt><trkpt lat="56.3884957" lon="43.8501569"><time>2023-09-30T12:55:44.220</time></trkpt><trkpt lat="56.3885509" lon="43.8501390"><time>2023-09-30T12:55:46.220</time></trkpt><trkpt lat="56.3886093" lon="43.8501294"><time>2023-09-30T12:55:48.217</time></trkpt><trkpt lat="56.3886671" lon="43.8501113"><time>2023-09-30T12:55:50.227</time></trkpt><trkpt lat="56.3887244" lon="43.8500898"><time>2023-09-30T12:55:52.223</time></trkpt><trkpt lat="56.3887843" lon="43.8500698"><time>2023-09-30T12:55:54.220</time></trkpt><trkpt lat="56.3888425" lon="43.8500497"><time>2023-09-30T12:55:56.223</time></trkpt><trkpt lat="56.3888995" lon="43.8500289"><time>2023-09-30T12:55:58.227</time></trkpt><trkpt lat="56.3889552" lon="43.8500030"><time>2023-09-30T12:56:00.220</time></trkpt><trkpt lat="56.3890130" lon="43.8499905"><time>2023-09-30T12:56:02.217</time></trkpt><trkpt lat="56.3890718" lon="43.8499782"><time>2023-09-30T12:56:04.220</time></trkpt><trkpt lat="56.3891247" lon="43.8499510"><time>2023-09-30T12:56:06.200</time></trkpt><trkpt lat="56.3891757" lon="43.8499421"><time>2023-09-30T12:56:08.223</time></trkpt><trkpt lat="56.3892245" lon="43.8499578"><time>2023-09-30T12:56:10.193</time></trkpt><trkpt lat="56.3892907" lon="43.8499718"><time>2023-09-30T12:56:13.227</time></trkpt><trkpt lat="56.3893276" lon="43.8500347"><time>2023-09-30T12:56:15.203</time></trkpt><trkpt lat="56.3893954" lon="43.8500738"><time>2023-09-30T12:56:18.213</time></trkpt><trkpt lat="56.3894461" lon="43.8500859"><time>2023-09-30T12:56:20.220</time></trkpt><trkpt lat="56.3894987" lon="43.8501106"><time>2023-09-30T12:56:22.223</time></trkpt><trkpt lat="56.3895559" lon="43.8500999"><time>2023-09-30T12:56:24.210</time></trkpt><trkpt lat="56.3896135" lon="43.8500760"><time>2023-09-30T12:56:26.223</time></trkpt><trkpt lat="56.3896682" lon="43.8500427"><time>2023-09-30T12:56:28.213</time></trkpt><trkpt lat="56.3897182" lon="43.8500035"><time>2023-09-30T12:56:30.210</time></trkpt><trkpt lat="56.3897690" lon="43.8499671"><time>2023-09-30T12:56:32.220</time></trkpt><trkpt lat="56.3898244" lon="43.8499455"><time>2023-09-30T12:56:34.223</time></trkpt><trkpt lat="56.3898847" lon="43.8499336"><time>2023-09-30T12:56:36.217</time></trkpt><trkpt lat="56.3899479" lon="43.8499219"><time>2023-09-30T12:56:38.217</time></trkpt><trkpt lat="56.3900112" lon="43.8499232"><time>2023-09-30T12:56:40.220</time></trkpt><trkpt lat="56.3900740" lon="43.8499165"><time>2023-09-30T12:56:42.210</time></trkpt><trkpt lat="56.3901380" lon="43.8499230"><time>2023-09-30T12:56:44.223</time></trkpt><trkpt lat="56.3902022" lon="43.8499452"><time>2023-09-30T12:56:46.217</time></trkpt><trkpt lat="56.3902642" lon="43.8499638"><time>2023-09-30T12:56:48.220</time></trkpt><trkpt lat="56.3903298" lon="43.8499889"><time>2023-09-30T12:56:50.223</time></trkpt><trkpt lat="56.3903911" lon="43.8500246"><time>2023-09-30T12:56:52.233</time></trkpt><trkpt lat="56.3904500" lon="43.8500792"><time>2023-09-30T12:56:54.223</time></trkpt><trkpt lat="56.3905073" lon="43.8501490"><time>2023-09-30T12:56:56.220</time></trkpt><trkpt lat="56.3905658" lon="43.8502239"><time>2023-09-30T12:56:58.217</time></trkpt><trkpt lat="56.3906196" lon="43.8503029"><time>2023-09-30T12:57:00.220</time></trkpt><trkpt lat="56.3906736" lon="43.8503618"><time>2023-09-30T12:57:02.223</time></trkpt><trkpt lat="56.3907282" lon="43.8504166"><time>2023-09-30T12:57:04.223</time></trkpt><trkpt lat="56.3907830" lon="43.8504566"><time>2023-09-30T12:57:06.223</time></trkpt><trkpt lat="56.3908401" lon="43.8504841"><time>2023-09-30T12:57:08.203</time></trkpt><trkpt lat="56.3908964" lon="43.8505091"><time>2023-09-30T12:57:10.210</time></trkpt><trkpt lat="56.3909497" lon="43.8504916"><time>2023-09-30T12:57:12.230</time></trkpt><trkpt lat="56.3910003" lon="43.8504769"><time>2023-09-30T12:57:15.227</time></trkpt><trkpt lat="56.3910474" lon="43.8504696"><time>2023-09-30T12:57:18.200</time></trkpt><trkpt lat="56.3911121" lon="43.8504637"><time>2023-09-30T12:57:21.217</time></trkpt><trkpt lat="56.3911617" lon="43.8504356"><time>2023-09-30T12:57:23.220</time></trkpt><trkpt lat="56.3912148" lon="43.8504128"><time>2023-09-30T12:57:25.217</time></trkpt><trkpt lat="56.3912713" lon="43.8503897"><time>2023-09-30T12:57:27.220</time></trkpt><trkpt lat="56.3913284" lon="43.8503714"><time>2023-09-30T12:57:29.213</time></trkpt><trkpt lat="56.3913832" lon="43.8503420"><time>2023-09-30T12:57:31.217</time></trkpt><trkpt lat="56.3914403" lon="43.8503152"><time>2023-09-30T12:57:33.227</time></trkpt><trkpt lat="56.3915053" lon="43.8503035"><time>2023-09-30T12:57:35.217</time></trkpt><trkpt lat="56.3915702" lon="43.8502901"><time>2023-09-30T12:57:37.220</time></trkpt><trkpt lat="56.3916241" lon="43.8502196"><time>2023-09-30T12:57:39.223</time></trkpt><trkpt lat="56.3916797" lon="43.8501523"><time>2023-09-30T12:57:41.220</time></trkpt><trkpt lat="56.3917254" lon="43.8500836"><time>2023-09-30T12:57:43.217</time></trkpt><trkpt lat="56.3917697" lon="43.8500152"><time>2023-09-30T12:57:45.220</time></trkpt><trkpt lat="56.3918204" lon="43.8499512"><time>2023-09-30T12:57:47.220</time></trkpt><trkpt lat="56.3918784" lon="43.8499023"><time>2023-09-30T12:57:49.220</time></trkpt><trkpt lat="56.3919310" lon="43.8498517"><time>2023-09-30T12:57:51.223</time></trkpt><trkpt lat="56.3919805" lon="43.8497897"><time>2023-09-30T12:57:53.227</time></trkpt><trkpt lat="56.3920305" lon="43.8497281"><time>2023-09-30T12:57:55.223</time></trkpt><trkpt lat="56.3920798" lon="43.8496670"><time>2023-09-30T12:57:57.223</time></trkpt><trkpt lat="56.3921379" lon="43.8496245"><time>2023-09-30T12:57:59.207</time></trkpt><trkpt lat="56.3921983" lon="43.8496046"><time>2023-09-30T12:58:01.217</time></trkpt><trkpt lat="56.3922528" lon="43.8495637"><time>2023-09-30T12:58:03.223</time></trkpt><trkpt lat="56.3923080" lon="43.8495017"><time>2023-09-30T12:58:05.220</time></trkpt><trkpt lat="56.3923530" lon="43.8494266"><time>2023-09-30T12:58:07.223</time></trkpt><trkpt lat="56.3923979" lon="43.8493602"><time>2023-09-30T12:58:09.237</time></trkpt><trkpt lat="56.3924440" lon="43.8493005"><time>2023-09-30T12:58:11.223</time></trkpt><trkpt lat="56.3924887" lon="43.8492430"><time>2023-09-30T12:58:13.220</time></trkpt><trkpt lat="56.3925357" lon="43.8491922"><time>2023-09-30T12:58:15.210</time></trkpt><trkpt lat="56.3925881" lon="43.8491507"><time>2023-09-30T12:58:17.230</time></trkpt><trkpt lat="56.3926405" lon="43.8491249"><time>2023-09-30T12:58:19.233</time></trkpt><trkpt lat="56.3926631" lon="43.8491080"><time>2023-09-30T12:58:20.213</time></trkpt><trkpt lat="56.3927089" lon="43.8490631"><time>2023-09-30T12:58:22.223</time></trkpt><trkpt lat="56.3927521" lon="43.8490148"><time>2023-09-30T12:58:24.210</time></trkpt><trkpt lat="56.3927883" lon="43.8489470"><time>2023-09-30T12:58:26.210</time></trkpt><trkpt lat="56.3928270" lon="43.8488667"><time>2023-09-30T12:58:28.213</time></trkpt><trkpt lat="56.3928749" lon="43.8488000"><time>2023-09-30T12:58:30.210</time></trkpt><trkpt lat="56.3929260" lon="43.8487499"><time>2023-09-30T12:58:32.213</time></trkpt><trkpt lat="56.3929713" lon="43.8486750"><time>2023-09-30T12:58:34.197</time></trkpt><trkpt lat="56.3930131" lon="43.8485991"><time>2023-09-30T12:58:36.213</time></trkpt><trkpt lat="56.3930529" lon="43.8485353"><time>2023-09-30T12:58:38.213</time></trkpt><trkpt lat="56.3930920" lon="43.8484804"><time>2023-09-30T12:58:40.210</time></trkpt><trkpt lat="56.3931470" lon="43.8484215"><time>2023-09-30T12:58:42.213</time></trkpt><trkpt lat="56.3932009" lon="43.8483551"><time>2023-09-30T12:58:44.213</time></trkpt><trkpt lat="56.3932511" lon="43.8482901"><time>2023-09-30T12:58:46.210</time></trkpt><trkpt lat="56.3933027" lon="43.8482319"><time>2023-09-30T12:58:48.217</time></trkpt><trkpt lat="56.3933555" lon="43.8481641"><time>2023-09-30T12:58:50.237</time></trkpt><trkpt lat="56.3933807" lon="43.8481276"><time>2023-09-30T12:58:51.220</time></trkpt><trkpt lat="56.3934319" lon="43.8480537"><time>2023-09-30T12:58:53.220</time></trkpt><trkpt lat="56.3934845" lon="43.8479906"><time>2023-09-30T12:58:55.210</time></trkpt><trkpt lat="56.3935370" lon="43.8479240"><time>2023-09-30T12:58:57.227</time></trkpt><trkpt lat="56.3935881" lon="43.8478482"><time>2023-09-30T12:58:59.217</time></trkpt><trkpt lat="56.3936361" lon="43.8477643"><time>2023-09-30T12:59:01.217</time></trkpt><trkpt lat="56.3936886" lon="43.8476802"><time>2023-09-30T12:59:03.220</time></trkpt><trkpt lat="56.3937336" lon="43.8475899"><time>2023-09-30T12:59:05.240</time></trkpt><trkpt lat="56.3937454" lon="43.8475453"><time>2023-09-30T12:59:06.217</time></trkpt><trkpt lat="56.3937528" lon="43.8474517"><time>2023-09-30T12:59:08.217</time></trkpt><trkpt lat="56.3937686" lon="43.8473597"><time>2023-09-30T12:59:10.217</time></trkpt><trkpt lat="56.3937786" lon="43.8472597"><time>2023-09-30T12:59:12.217</time></trkpt><trkpt lat="56.3937911" lon="43.8471626"><time>2023-09-30T12:59:14.220</time></trkpt><trkpt lat="56.3938038" lon="43.8470686"><time>2023-09-30T12:59:16.207</time></trkpt><trkpt lat="56.3938283" lon="43.8469885"><time>2023-09-30T12:59:18.233</time></trkpt><trkpt lat="56.3938283" lon="43.8469885"><time>2023-09-30T12:59:18.287</time></trkpt><trkpt lat="56.3938875" lon="43.8469733"><time>2023-09-30T12:59:20.253</time></trkpt><trkpt lat="56.3939205" lon="43.8469761"><time>2023-09-30T12:59:21.213</time></trkpt><trkpt lat="56.3939824" lon="43.8470275"><time>2023-09-30T12:59:23.220</time></trkpt><trkpt lat="56.3940419" lon="43.8470811"><time>2023-09-30T12:59:25.217</time></trkpt><trkpt lat="56.3941004" lon="43.8471459"><time>2023-09-30T12:59:27.220</time></trkpt><trkpt lat="56.3941537" lon="43.8472151"><time>2023-09-30T12:59:29.217</time></trkpt><trkpt lat="56.3942107" lon="43.8472691"><time>2023-09-30T12:59:31.220</time></trkpt><trkpt lat="56.3942641" lon="43.8473076"><time>2023-09-30T12:59:33.223</time></trkpt><trkpt lat="56.3943118" lon="43.8473606"><time>2023-09-30T12:59:35.217</time></trkpt><trkpt lat="56.3943587" lon="43.8474249"><time>2023-09-30T12:59:37.220</time></trkpt><trkpt lat="56.3944106" lon="43.8474881"><time>2023-09-30T12:59:39.197</time></trkpt><trkpt lat="56.3944617" lon="43.8475440"><time>2023-09-30T12:59:41.217</time></trkpt><trkpt lat="56.3945149" lon="43.8476014"><time>2023-09-30T12:59:43.217</time></trkpt><trkpt lat="56.3945719" lon="43.8476427"><time>2023-09-30T12:59:45.210</time></trkpt><trkpt lat="56.3946221" lon="43.8477008"><time>2023-09-30T12:59:47.203</time></trkpt><trkpt lat="56.3946723" lon="43.8477475"><time>2023-09-30T12:59:49.203</time></trkpt><trkpt lat="56.3947242" lon="43.8477914"><time>2023-09-30T12:59:51.217</time></trkpt><trkpt lat="56.3947776" lon="43.8478467"><time>2023-09-30T12:59:53.213</time></trkpt><trkpt lat="56.3948294" lon="43.8478989"><time>2023-09-30T12:59:55.200</time></trkpt><trkpt lat="56.3948849" lon="43.8479471"><time>2023-09-30T12:59:57.217</time></trkpt><trkpt lat="56.3949412" lon="43.8479927"><time>2023-09-30T12:59:59.217</time></trkpt><trkpt lat="56.3949974" lon="43.8480234"><time>2023-09-30T13:00:01.213</time></trkpt><trkpt lat="56.3950498" lon="43.8480664"><time>2023-09-30T13:00:03.227</time></trkpt><trkpt lat="56.3950939" lon="43.8481468"><time>2023-09-30T13:00:05.213</time></trkpt><trkpt lat="56.3951440" lon="43.8482077"><time>2023-09-30T13:00:07.217</time></trkpt><trkpt lat="56.3951905" lon="43.8482779"><time>2023-09-30T13:00:09.197</time></trkpt><trkpt lat="56.3952318" lon="43.8483623"><time>2023-09-30T13:00:11.203</time></trkpt><trkpt lat="56.3952629" lon="43.8484480"><time>2023-09-30T13:00:13.213</time></trkpt><trkpt lat="56.3952865" lon="43.8485348"><time>2023-09-30T13:00:15.223</time></trkpt><trkpt lat="56.3953073" lon="43.8486240"><time>2023-09-30T13:00:17.217</time></trkpt><trkpt lat="56.3953312" lon="43.8487133"><time>2023-09-30T13:00:19.210</time></trkpt><trkpt lat="56.3953547" lon="43.8488061"><time>2023-09-30T13:00:21.203</time></trkpt><trkpt lat="56.3953806" lon="43.8488977"><time>2023-09-30T13:00:23.213</time></trkpt><trkpt lat="56.3954004" lon="43.8489985"><time>2023-09-30T13:00:25.217</time></trkpt><trkpt lat="56.3954251" lon="43.8490983"><time>2023-09-30T13:00:27.203</time></trkpt><trkpt lat="56.3954509" lon="43.8491925"><time>2023-09-30T13:00:29.217</time></trkpt><trkpt lat="56.3954777" lon="43.8492824"><time>2023-09-30T13:00:31.213</time></trkpt><trkpt lat="56.3955087" lon="43.8493782"><time>2023-09-30T13:00:33.210</time></trkpt><trkpt lat="56.3955418" lon="43.8494754"><time>2023-09-30T13:00:35.220</time></trkpt><trkpt lat="56.3955777" lon="43.8495719"><time>2023-09-30T13:00:37.220</time></trkpt><trkpt lat="56.3956015" lon="43.8496663"><time>2023-09-30T13:00:39.210</time></trkpt><trkpt lat="56.3956263" lon="43.8497727"><time>2023-09-30T13:00:42.210</time></trkpt><trkpt lat="56.3956473" lon="43.8498906"><time>2023-09-30T13:00:44.193</time></trkpt><trkpt lat="56.3956604" lon="43.8500001"><time>2023-09-30T13:00:46.213</time></trkpt><trkpt lat="56.3956680" lon="43.8501038"><time>2023-09-30T13:00:48.200</time></trkpt><trkpt lat="56.3956729" lon="43.8502088"><time>2023-09-30T13:00:50.213</time></trkpt><trkpt lat="56.3956698" lon="43.8503099"><time>2023-09-30T13:00:52.200</time></trkpt><trkpt lat="56.3956611" lon="43.8504056"><time>2023-09-30T13:00:54.213</time></trkpt><trkpt lat="56.3956600" lon="43.8505039"><time>2023-09-30T13:00:56.220</time></trkpt><trkpt lat="56.3956618" lon="43.8506026"><time>2023-09-30T13:00:58.217</time></trkpt><trkpt lat="56.3956522" lon="43.8507005"><time>2023-09-30T13:01:00.217</time></trkpt><trkpt lat="56.3956511" lon="43.8507987"><time>2023-09-30T13:01:02.210</time></trkpt><trkpt lat="56.3956548" lon="43.8508876"><time>2023-09-30T13:01:04.193</time></trkpt><trkpt lat="56.3956649" lon="43.8509796"><time>2023-09-30T13:01:06.193</time></trkpt><trkpt lat="56.3956631" lon="43.8510786"><time>2023-09-30T13:01:08.207</time></trkpt><trkpt lat="56.3956633" lon="43.8511750"><time>2023-09-30T13:01:10.227</time></trkpt><trkpt lat="56.3956590" lon="43.8512746"><time>2023-09-30T13:01:12.203</time></trkpt><trkpt lat="56.3956546" lon="43.8513683"><time>2023-09-30T13:01:14.207</time></trkpt><trkpt lat="56.3956554" lon="43.8514647"><time>2023-09-30T13:01:16.223</time></trkpt><trkpt lat="56.3956643" lon="43.8515636"><time>2023-09-30T13:01:18.207</time></trkpt><trkpt lat="56.3956716" lon="43.8516602"><time>2023-09-30T13:01:20.207</time></trkpt><trkpt lat="56.3956753" lon="43.8517610"><time>2023-09-30T13:01:22.223</time></trkpt><trkpt lat="56.3956799" lon="43.8518707"><time>2023-09-30T13:01:24.220</time></trkpt><trkpt lat="56.3956845" lon="43.8519788"><time>2023-09-30T13:01:26.197</time></trkpt><trkpt lat="56.3956934" lon="43.8520820"><time>2023-09-30T13:01:28.203</time></trkpt><trkpt lat="56.3957101" lon="43.8521806"><time>2023-09-30T13:01:30.220</time></trkpt><trkpt lat="56.3957248" lon="43.8522790"><time>2023-09-30T13:01:32.207</time></trkpt><trkpt lat="56.3957505" lon="43.8523698"><time>2023-09-30T13:01:34.217</time></trkpt><trkpt lat="56.3957764" lon="43.8524632"><time>2023-09-30T13:01:36.203</time></trkpt><trkpt lat="56.3958122" lon="43.8525531"><time>2023-09-30T13:01:38.227</time></trkpt><trkpt lat="56.3958390" lon="43.8526520"><time>2023-09-30T13:01:40.217</time></trkpt><trkpt lat="56.3958645" lon="43.8527603"><time>2023-09-30T13:01:42.213</time></trkpt><trkpt lat="56.3958887" lon="43.8528654"><time>2023-09-30T13:01:44.223</time></trkpt><trkpt lat="56.3959161" lon="43.8529666"><time>2023-09-30T13:01:46.230</time></trkpt><trkpt lat="56.3959452" lon="43.8530599"><time>2023-09-30T13:01:48.227</time></trkpt><trkpt lat="56.3959800" lon="43.8531470"><time>2023-09-30T13:01:50.223</time></trkpt><trkpt lat="56.3960130" lon="43.8532388"><time>2023-09-30T13:01:52.203</time></trkpt><trkpt lat="56.3960492" lon="43.8533239"><time>2023-09-30T13:01:54.217</time></trkpt><trkpt lat="56.3960828" lon="43.8534108"><time>2023-09-30T13:01:56.220</time></trkpt><trkpt lat="56.3961161" lon="43.8535021"><time>2023-09-30T13:01:58.217</time></trkpt><trkpt lat="56.3961404" lon="43.8536050"><time>2023-09-30T13:02:00.217</time></trkpt><trkpt lat="56.3961488" lon="43.8537138"><time>2023-09-30T13:02:02.220</time></trkpt><trkpt lat="56.3961396" lon="43.8538182"><time>2023-09-30T13:02:04.217</time></trkpt><trkpt lat="56.3961116" lon="43.8539135"><time>2023-09-30T13:02:06.223</time></trkpt><trkpt lat="56.3960745" lon="43.8539993"><time>2023-09-30T13:02:08.213</time></trkpt><trkpt lat="56.3960376" lon="43.8540782"><time>2023-09-30T13:02:10.197</time></trkpt><trkpt lat="56.3960121" lon="43.8541663"><time>2023-09-30T13:02:12.203</time></trkpt><trkpt lat="56.3959789" lon="43.8542462"><time>2023-09-30T13:02:14.223</time></trkpt><trkpt lat="56.3959463" lon="43.8543275"><time>2023-09-30T13:02:16.223</time></trkpt><trkpt lat="56.3959189" lon="43.8544234"><time>2023-09-30T13:02:18.220</time></trkpt><trkpt lat="56.3958846" lon="43.8545122"><time>2023-09-30T13:02:20.217</time></trkpt><trkpt lat="56.3958334" lon="43.8545776"><time>2023-09-30T13:02:22.220</time></trkpt><trkpt lat="56.3957831" lon="43.8546442"><time>2023-09-30T13:02:24.213</time></trkpt><trkpt lat="56.3957347" lon="43.8547174"><time>2023-09-30T13:02:26.220</time></trkpt><trkpt lat="56.3956867" lon="43.8547725"><time>2023-09-30T13:02:28.227</time></trkpt><trkpt lat="56.3956413" lon="43.8548327"><time>2023-09-30T13:02:30.217</time></trkpt><trkpt lat="56.3955926" lon="43.8548823"><time>2023-09-30T13:02:32.223</time></trkpt><trkpt lat="56.3955434" lon="43.8549284"><time>2023-09-30T13:02:34.220</time></trkpt><trkpt lat="56.3954915" lon="43.8549690"><time>2023-09-30T13:02:36.217</time></trkpt><trkpt lat="56.3954359" lon="43.8550053"><time>2023-09-30T13:02:38.217</time></trkpt><trkpt lat="56.3953827" lon="43.8550559"><time>2023-09-30T13:02:40.213</time></trkpt><trkpt lat="56.3953286" lon="43.8551133"><time>2023-09-30T13:02:42.220</time></trkpt><trkpt lat="56.3952702" lon="43.8551539"><time>2023-09-30T13:02:44.223</time></trkpt><trkpt lat="56.3952151" lon="43.8552078"><time>2023-09-30T13:02:46.220</time></trkpt><trkpt lat="56.3951628" lon="43.8552819"><time>2023-09-30T13:02:48.227</time></trkpt><trkpt lat="56.3951120" lon="43.8553575"><time>2023-09-30T13:02:50.220</time></trkpt><trkpt lat="56.3950587" lon="43.8554137"><time>2023-09-30T13:02:52.223</time></trkpt><trkpt lat="56.3950040" lon="43.8554470"><time>2023-09-30T13:02:54.220</time></trkpt><trkpt lat="56.3949518" lon="43.8554834"><time>2023-09-30T13:02:56.213</time></trkpt><trkpt lat="56.3949040" lon="43.8555347"><time>2023-09-30T13:02:58.223</time></trkpt><trkpt lat="56.3948533" lon="43.8556145"><time>2023-09-30T13:03:00.217</time></trkpt><trkpt lat="56.3948002" lon="43.8556823"><time>2023-09-30T13:03:02.220</time></trkpt><trkpt lat="56.3947388" lon="43.8557356"><time>2023-09-30T13:03:04.223</time></trkpt><trkpt lat="56.3946720" lon="43.8557787"><time>2023-09-30T13:03:06.210</time></trkpt><trkpt lat="56.3946174" lon="43.8558278"><time>2023-09-30T13:03:08.203</time></trkpt><trkpt lat="56.3945649" lon="43.8558937"><time>2023-09-30T13:03:10.217</time></trkpt><trkpt lat="56.3945132" lon="43.8559695"><time>2023-09-30T13:03:12.223</time></trkpt><trkpt lat="56.3944621" lon="43.8560235"><time>2023-09-30T13:03:14.223</time></trkpt><trkpt lat="56.3944122" lon="43.8560763"><time>2023-09-30T13:03:16.220</time></trkpt><trkpt lat="56.3943617" lon="43.8561338"><time>2023-09-30T13:03:18.217</time></trkpt><trkpt lat="56.3943077" lon="43.8562038"><time>2023-09-30T13:03:20.217</time></trkpt><trkpt lat="56.3942540" lon="43.8562628"><time>2023-09-30T13:03:22.220</time></trkpt><trkpt lat="56.3941988" lon="43.8563172"><time>2023-09-30T13:03:24.220</time></trkpt><trkpt lat="56.3941492" lon="43.8563712"><time>2023-09-30T13:03:26.237</time></trkpt><trkpt lat="56.3941048" lon="43.8564459"><time>2023-09-30T13:03:28.223</time></trkpt><trkpt lat="56.3940578" lon="43.8565255"><time>2023-09-30T13:03:30.223</time></trkpt><trkpt lat="56.3940101" lon="43.8566001"><time>2023-09-30T13:03:32.220</time></trkpt><trkpt lat="56.3939639" lon="43.8566704"><time>2023-09-30T13:03:34.217</time></trkpt><trkpt lat="56.3939251" lon="43.8567493"><time>2023-09-30T13:03:36.217</time></trkpt><trkpt lat="56.3938778" lon="43.8568116"><time>2023-09-30T13:03:38.223</time></trkpt><trkpt lat="56.3938274" lon="43.8568712"><time>2023-09-30T13:03:40.220</time></trkpt><trkpt lat="56.3937716" lon="43.8569192"><time>2023-09-30T13:03:42.217</time></trkpt><trkpt lat="56.3937165" lon="43.8569653"><time>2023-09-30T13:03:44.223</time></trkpt><trkpt lat="56.3936631" lon="43.8570213"><time>2023-09-30T13:03:46.220</time></trkpt><trkpt lat="56.3936110" lon="43.8570690"><time>2023-09-30T13:03:48.223</time></trkpt><trkpt lat="56.3935616" lon="43.8571138"><time>2023-09-30T13:03:50.223</time></trkpt><trkpt lat="56.3935137" lon="43.8571670"><time>2023-09-30T13:03:52.220</time></trkpt><trkpt lat="56.3934686" lon="43.8572270"><time>2023-09-30T13:03:54.220</time></trkpt><trkpt lat="56.3934225" lon="43.8572869"><time>2023-09-30T13:03:56.217</time></trkpt><trkpt lat="56.3933736" lon="43.8573390"><time>2023-09-30T13:03:58.217</time></trkpt><trkpt lat="56.3933256" lon="43.8573974"><time>2023-09-30T13:04:00.223</time></trkpt><trkpt lat="56.3932765" lon="43.8574563"><time>2023-09-30T13:04:02.217</time></trkpt><trkpt lat="56.3932302" lon="43.8575117"><time>2023-09-30T13:04:04.220</time></trkpt><trkpt lat="56.3931842" lon="43.8575694"><time>2023-09-30T13:04:06.227</time></trkpt><trkpt lat="56.3931384" lon="43.8576114"><time>2023-09-30T13:04:08.187</time></trkpt><trkpt lat="56.3930975" lon="43.8576623"><time>2023-09-30T13:04:10.197</time></trkpt><trkpt lat="56.3930639" lon="43.8577264"><time>2023-09-30T13:04:12.220</time></trkpt><trkpt lat="56.3930177" lon="43.8577787"><time>2023-09-30T13:04:14.227</time></trkpt><trkpt lat="56.3929667" lon="43.8578346"><time>2023-09-30T13:04:16.193</time></trkpt><trkpt lat="56.3929164" lon="43.8578881"><time>2023-09-30T13:04:18.203</time></trkpt><trkpt lat="56.3928726" lon="43.8579548"><time>2023-09-30T13:04:20.210</time></trkpt><trkpt lat="56.3928186" lon="43.8580127"><time>2023-09-30T13:04:23.223</time></trkpt><trkpt lat="56.3927497" lon="43.8580650"><time>2023-09-30T13:04:26.210</time></trkpt><trkpt lat="56.3926842" lon="43.8581253"><time>2023-09-30T13:04:28.217</time></trkpt><trkpt lat="56.3926223" lon="43.8581944"><time>2023-09-30T13:04:30.217</time></trkpt><trkpt lat="56.3925675" lon="43.8582722"><time>2023-09-30T13:04:32.227</time></trkpt><trkpt lat="56.3925089" lon="43.8583505"><time>2023-09-30T13:04:34.227</time></trkpt><trkpt lat="56.3924525" lon="43.8584194"><time>2023-09-30T13:04:36.223</time></trkpt><trkpt lat="56.3923977" lon="43.8584859"><time>2023-09-30T13:04:38.200</time></trkpt><trkpt lat="56.3923570" lon="43.8585651"><time>2023-09-30T13:04:40.213</time></trkpt><trkpt lat="56.3923176" lon="43.8586510"><time>2023-09-30T13:04:42.213</time></trkpt><trkpt lat="56.3922824" lon="43.8587309"><time>2023-09-30T13:04:44.217</time></trkpt><trkpt lat="56.3922442" lon="43.8588043"><time>2023-09-30T13:04:46.227</time></trkpt><trkpt lat="56.3922049" lon="43.8588831"><time>2023-09-30T13:04:48.210</time></trkpt><trkpt lat="56.3921624" lon="43.8589455"><time>2023-09-30T13:04:50.220</time></trkpt><trkpt lat="56.3921062" lon="43.8589817"><time>2023-09-30T13:04:52.227</time></trkpt><trkpt lat="56.3920498" lon="43.8589996"><time>2023-09-30T13:04:54.220</time></trkpt><trkpt lat="56.3919943" lon="43.8590248"><time>2023-09-30T13:04:56.220</time></trkpt><trkpt lat="56.3919373" lon="43.8590593"><time>2023-09-30T13:04:58.230</time></trkpt><trkpt lat="56.3918874" lon="43.8591056"><time>2023-09-30T13:05:00.223</time></trkpt><trkpt lat="56.3918294" lon="43.8591566"><time>2023-09-30T13:05:02.213</time></trkpt><trkpt lat="56.3917750" lon="43.8592084"><time>2023-09-30T13:05:04.220</time></trkpt><trkpt lat="56.3917272" lon="43.8592669"><time>2023-09-30T13:05:06.217</time></trkpt><trkpt lat="56.3916723" lon="43.8593110"><time>2023-09-30T13:05:08.223</time></trkpt><trkpt lat="56.3916201" lon="43.8593545"><time>2023-09-30T13:05:10.220</time></trkpt><trkpt lat="56.3915682" lon="43.8593943"><time>2023-09-30T13:05:12.217</time></trkpt><trkpt lat="56.3915175" lon="43.8594466"><time>2023-09-30T13:05:14.220</time></trkpt><trkpt lat="56.3914672" lon="43.8594957"><time>2023-09-30T13:05:16.220</time></trkpt><trkpt lat="56.3914168" lon="43.8595408"><time>2023-09-30T13:05:18.220</time></trkpt><trkpt lat="56.3913675" lon="43.8595898"><time>2023-09-30T13:05:20.223</time></trkpt><trkpt lat="56.3913183" lon="43.8596565"><time>2023-09-30T13:05:22.217</time></trkpt><trkpt lat="56.3912740" lon="43.8597237"><time>2023-09-30T13:05:24.213</time></trkpt><trkpt lat="56.3912333" lon="43.8597936"><time>2023-09-30T13:05:26.217</time></trkpt><trkpt lat="56.3911814" lon="43.8598567"><time>2023-09-30T13:05:28.217</time></trkpt><trkpt lat="56.3911258" lon="43.8599055"><time>2023-09-30T13:05:30.200</time></trkpt><trkpt lat="56.3910779" lon="43.8599427"><time>2023-09-30T13:05:32.220</time></trkpt><trkpt lat="56.3910279" lon="43.8599755"><time>2023-09-30T13:05:34.220</time></trkpt><trkpt lat="56.3909677" lon="43.8600217"><time>2023-09-30T13:05:36.223</time></trkpt><trkpt lat="56.3909127" lon="43.8600739"><time>2023-09-30T13:05:38.220</time></trkpt><trkpt lat="56.3908601" lon="43.8601418"><time>2023-09-30T13:05:40.217</time></trkpt><trkpt lat="56.3908076" lon="43.8602054"><time>2023-09-30T13:05:42.223</time></trkpt><trkpt lat="56.3907526" lon="43.8602687"><time>2023-09-30T13:05:44.227</time></trkpt><trkpt lat="56.3907026" lon="43.8603355"><time>2023-09-30T13:05:46.197</time></trkpt><trkpt lat="56.3906692" lon="43.8604039"><time>2023-09-30T13:05:48.217</time></trkpt><trkpt lat="56.3906309" lon="43.8604753"><time>2023-09-30T13:05:50.213</time></trkpt><trkpt lat="56.3905977" lon="43.8605507"><time>2023-09-30T13:05:52.223</time></trkpt><trkpt lat="56.3905550" lon="43.8606157"><time>2023-09-30T13:05:54.233</time></trkpt><trkpt lat="56.3904924" lon="43.8606495"><time>2023-09-30T13:05:56.223</time></trkpt><trkpt lat="56.3904530" lon="43.8607295"><time>2023-09-30T13:05:58.220</time></trkpt><trkpt lat="56.3904235" lon="43.8608200"><time>2023-09-30T13:06:00.220</time></trkpt><trkpt lat="56.3903963" lon="43.8609034"><time>2023-09-30T13:06:02.193</time></trkpt><trkpt lat="56.3903664" lon="43.8609798"><time>2023-09-30T13:06:04.190</time></trkpt><trkpt lat="56.3903118" lon="43.8610273"><time>2023-09-30T13:06:07.223</time></trkpt><trkpt lat="56.3902688" lon="43.8610522"><time>2023-09-30T13:06:09.227</time></trkpt><trkpt lat="56.3902187" lon="43.8610479"><time>2023-09-30T13:06:11.207</time></trkpt><trkpt lat="56.3901648" lon="43.8610393"><time>2023-09-30T13:06:13.217</time></trkpt><trkpt lat="56.3901133" lon="43.8610470"><time>2023-09-30T13:06:15.217</time></trkpt><trkpt lat="56.3900524" lon="43.8610385"><time>2023-09-30T13:06:17.237</time></trkpt><trkpt lat="56.3900253" lon="43.8610344"><time>2023-09-30T13:06:18.207</time></trkpt><trkpt lat="56.3899692" lon="43.8610200"><time>2023-09-30T13:06:20.200</time></trkpt><trkpt lat="56.3899105" lon="43.8610086"><time>2023-09-30T13:06:22.210</time></trkpt><trkpt lat="56.3898514" lon="43.8609817"><time>2023-09-30T13:06:24.217</time></trkpt><trkpt lat="56.3897911" lon="43.8609554"><time>2023-09-30T13:06:26.220</time></trkpt><trkpt lat="56.3897328" lon="43.8609607"><time>2023-09-30T13:06:28.220</time></trkpt><trkpt lat="56.3896805" lon="43.8609950"><time>2023-09-30T13:06:30.217</time></trkpt><trkpt lat="56.3896292" lon="43.8610239"><time>2023-09-30T13:06:32.227</time></trkpt><trkpt lat="56.3895699" lon="43.8610436"><time>2023-09-30T13:06:34.210</time></trkpt><trkpt lat="56.3895126" lon="43.8610371"><time>2023-09-30T13:06:36.217</time></trkpt><trkpt lat="56.3894585" lon="43.8610034"><time>2023-09-30T13:06:38.213</time></trkpt><trkpt lat="56.3894063" lon="43.8609511"><time>2023-09-30T13:06:40.217</time></trkpt><trkpt lat="56.3893513" lon="43.8609121"><time>2023-09-30T13:06:42.213</time></trkpt><trkpt lat="56.3892968" lon="43.8608750"><time>2023-09-30T13:06:44.220</time></trkpt><trkpt lat="56.3892525" lon="43.8608188"><time>2023-09-30T13:06:46.217</time></trkpt><trkpt lat="56.3892139" lon="43.8607534"><time>2023-09-30T13:06:48.213</time></trkpt><trkpt lat="56.3891725" lon="43.8606963"><time>2023-09-30T13:06:50.210</time></trkpt><trkpt lat="56.3891181" lon="43.8606711"><time>2023-09-30T13:06:52.213</time></trkpt><trkpt lat="56.3890891" lon="43.8606692"><time>2023-09-30T13:06:53.210</time></trkpt><trkpt lat="56.3890314" lon="43.8606747"><time>2023-09-30T13:06:55.197</time></trkpt><trkpt lat="56.3889761" lon="43.8606857"><time>2023-09-30T13:06:57.213</time></trkpt><trkpt lat="56.3889226" lon="43.8606912"><time>2023-09-30T13:06:59.210</time></trkpt><trkpt lat="56.3888687" lon="43.8606994"><time>2023-09-30T13:07:01.197</time></trkpt><trkpt lat="56.3888139" lon="43.8606899"><time>2023-09-30T13:07:03.193</time></trkpt><trkpt lat="56.3887623" lon="43.8607063"><time>2023-09-30T13:07:05.207</time></trkpt><trkpt lat="56.3887095" lon="43.8607288"><time>2023-09-30T13:07:07.213</time></trkpt><trkpt lat="56.3886552" lon="43.8607547"><time>2023-09-30T13:07:09.230</time></trkpt><trkpt lat="56.3886309" lon="43.8607790"><time>2023-09-30T13:07:10.207</time></trkpt><trkpt lat="56.3885849" lon="43.8608265"><time>2023-09-30T13:07:12.193</time></trkpt><trkpt lat="56.3885391" lon="43.8608750"><time>2023-09-30T13:07:14.187</time></trkpt><trkpt lat="56.3884950" lon="43.8609228"><time>2023-09-30T13:07:16.200</time></trkpt><trkpt lat="56.3884460" lon="43.8609640"><time>2023-09-30T13:07:18.207</time></trkpt><trkpt lat="56.3883981" lon="43.8610168"><time>2023-09-30T13:07:20.203</time></trkpt><trkpt lat="56.3883528" lon="43.8610702"><time>2023-09-30T13:07:22.220</time></trkpt><trkpt lat="56.3883528" lon="43.8610702"><time>2023-09-30T13:07:22.277</time></trkpt><trkpt lat="56.3883076" lon="43.8611205"><time>2023-09-30T13:07:24.207</time></trkpt><trkpt lat="56.3882902" lon="43.8611030"><time>2023-09-30T13:07:25.310</time></trkpt><trkpt lat="56.3882327" lon="43.8611708"><time>2023-09-30T13:07:27.197</time></trkpt><trkpt lat="56.3881804" lon="43.8611995"><time>2023-09-30T13:07:29.183</time></trkpt><trkpt lat="56.3881296" lon="43.8612390"><time>2023-09-30T13:07:31.207</time></trkpt><trkpt lat="56.3880781" lon="43.8612747"><time>2023-09-30T13:07:33.217</time></trkpt><trkpt lat="56.3880320" lon="43.8613060"><time>2023-09-30T13:07:35.193</time></trkpt><trkpt lat="56.3879865" lon="43.8613338"><time>2023-09-30T13:07:37.190</time></trkpt><trkpt lat="56.3879361" lon="43.8613685"><time>2023-09-30T13:07:41.193</time></trkpt><trkpt lat="56.3879393" lon="43.8612877"><time>2023-09-30T13:07:48.237</time></trkpt><trkpt lat="56.3878983" lon="43.8613226"><time>2023-09-30T13:07:52.227</time></trkpt><trkpt lat="56.3878600" lon="43.8613785"><time>2023-09-30T13:07:54.210</time></trkpt><trkpt lat="56.3878152" lon="43.8614376"><time>2023-09-30T13:07:56.220</time></trkpt><trkpt lat="56.3877753" lon="43.8614995"><time>2023-09-30T13:07:58.220</time></trkpt><trkpt lat="56.3877169" lon="43.8615370"><time>2023-09-30T13:08:00.233</time></trkpt><trkpt lat="56.3876636" lon="43.8615578"><time>2023-09-30T13:08:02.220</time></trkpt><trkpt lat="56.3877190" lon="43.8615077"><time>2023-09-30T13:08:12.223</time></trkpt><trkpt lat="56.3877703" lon="43.8614641"><time>2023-09-30T13:08:14.217</time></trkpt><trkpt lat="56.3878279" lon="43.8614117"><time>2023-09-30T13:08:16.223</time></trkpt><trkpt lat="56.3878866" lon="43.8613644"><time>2023-09-30T13:08:18.217</time></trkpt><trkpt lat="56.3879375" lon="43.8613261"><time>2023-09-30T13:08:20.217</time></trkpt><trkpt lat="56.3879882" lon="43.8612910"><time>2023-09-30T13:08:22.223</time></trkpt><trkpt lat="56.3880096" lon="43.8611764"><time>2023-09-30T13:08:25.223</time></trkpt><trkpt lat="56.3880178" lon="43.8610823"><time>2023-09-30T13:08:27.203</time></trkpt><trkpt lat="56.3880084" lon="43.8609806"><time>2023-09-30T13:08:29.217</time></trkpt><trkpt lat="56.3880034" lon="43.8608792"><time>2023-09-30T13:08:31.217</time></trkpt><trkpt lat="56.3879850" lon="43.8607628"><time>2023-09-30T13:08:33.220</time></trkpt><trkpt lat="56.3879723" lon="43.8606623"><time>2023-09-30T13:08:35.223</time></trkpt><trkpt lat="56.3879551" lon="43.8605613"><time>2023-09-30T13:08:37.227</time></trkpt><trkpt lat="56.3879451" lon="43.8604636"><time>2023-09-30T13:08:39.220</time></trkpt><trkpt lat="56.3879183" lon="43.8603618"><time>2023-09-30T13:08:41.217</time></trkpt><trkpt lat="56.3878945" lon="43.8602664"><time>2023-09-30T13:08:43.213</time></trkpt><trkpt lat="56.3878719" lon="43.8601629"><time>2023-09-30T13:08:45.213</time></trkpt><trkpt lat="56.3878495" lon="43.8600657"><time>2023-09-30T13:08:47.210</time></trkpt><trkpt lat="56.3878227" lon="43.8599823"><time>2023-09-30T13:08:49.217</time></trkpt><trkpt lat="56.3877866" lon="43.8598977"><time>2023-09-30T13:08:51.217</time></trkpt><trkpt lat="56.3877572" lon="43.8598011"><time>2023-09-30T13:08:53.213</time></trkpt><trkpt lat="56.3877262" lon="43.8597176"><time>2023-09-30T13:08:55.220</time></trkpt><trkpt lat="56.3876952" lon="43.8596348"><time>2023-09-30T13:08:57.217</time></trkpt><trkpt lat="56.3876557" lon="43.8595834"><time>2023-09-30T13:08:59.210</time></trkpt><trkpt lat="56.3876012" lon="43.8596020"><time>2023-09-30T13:09:01.217</time></trkpt><trkpt lat="56.3875395" lon="43.8596183"><time>2023-09-30T13:09:03.207</time></trkpt><trkpt lat="56.3874761" lon="43.8596226"><time>2023-09-30T13:09:05.217</time></trkpt><trkpt lat="56.3874227" lon="43.8596549"><time>2023-09-30T13:09:07.217</time></trkpt><trkpt lat="56.3873624" lon="43.8596858"><time>2023-09-30T13:09:09.217</time></trkpt><trkpt lat="56.3873030" lon="43.8597204"><time>2023-09-30T13:09:11.197</time></trkpt><trkpt lat="56.3872498" lon="43.8597481"><time>2023-09-30T13:09:13.217</time></trkpt><trkpt lat="56.3871920" lon="43.8597810"><time>2023-09-30T13:09:15.210</time></trkpt><trkpt lat="56.3871327" lon="43.8598086"><time>2023-09-30T13:09:17.217</time></trkpt><trkpt lat="56.3870625" lon="43.8598285"><time>2023-09-30T13:09:19.213</time></trkpt><trkpt lat="56.3869994" lon="43.8598556"><time>2023-09-30T13:09:21.207</time></trkpt><trkpt lat="56.3869417" lon="43.8598743"><time>2023-09-30T13:09:23.217</time></trkpt><trkpt lat="56.3868816" lon="43.8598890"><time>2023-09-30T13:09:25.220</time></trkpt><trkpt lat="56.3868140" lon="43.8599048"><time>2023-09-30T13:09:27.213</time></trkpt><trkpt lat="56.3867539" lon="43.8599202"><time>2023-09-30T13:09:29.220</time></trkpt><trkpt lat="56.3866972" lon="43.8599364"><time>2023-09-30T13:09:31.220</time></trkpt><trkpt lat="56.3866372" lon="43.8599620"><time>2023-09-30T13:09:33.200</time></trkpt><trkpt lat="56.3865760" lon="43.8599888"><time>2023-09-30T13:09:35.217</time></trkpt><trkpt lat="56.3865264" lon="43.8600235"><time>2023-09-30T13:09:37.223</time></trkpt><trkpt lat="56.3864745" lon="43.8600622"><time>2023-09-30T13:09:39.217</time></trkpt><trkpt lat="56.3864243" lon="43.8600980"><time>2023-09-30T13:09:41.213</time></trkpt><trkpt lat="56.3863682" lon="43.8601344"><time>2023-09-30T13:09:43.213</time></trkpt><trkpt lat="56.3863160" lon="43.8601676"><time>2023-09-30T13:09:45.220</time></trkpt><trkpt lat="56.3862598" lon="43.8602320"><time>2023-09-30T13:09:48.223</time></trkpt><trkpt lat="56.3862131" lon="43.8602735"><time>2023-09-30T13:09:50.193</time></trkpt><trkpt lat="56.3861584" lon="43.8603284"><time>2023-09-30T13:09:52.227</time></trkpt><trkpt lat="56.3860976" lon="43.8603641"><time>2023-09-30T13:09:54.213</time></trkpt><trkpt lat="56.3860462" lon="43.8604000"><time>2023-09-30T13:09:56.190</time></trkpt><trkpt lat="56.3859877" lon="43.8604446"><time>2023-09-30T13:09:58.217</time></trkpt><trkpt lat="56.3859292" lon="43.8604867"><time>2023-09-30T13:10:00.217</time></trkpt><trkpt lat="56.3858656" lon="43.8605221"><time>2023-09-30T13:10:02.233</time></trkpt><trkpt lat="56.3858023" lon="43.8605466"><time>2023-09-30T13:10:04.203</time></trkpt><trkpt lat="56.3857369" lon="43.8605754"><time>2023-09-30T13:10:06.223</time></trkpt><trkpt lat="56.3856716" lon="43.8606196"><time>2023-09-30T13:10:08.223</time></trkpt><trkpt lat="56.3856184" lon="43.8606540"><time>2023-09-30T13:10:10.213</time></trkpt><trkpt lat="56.3855613" lon="43.8606908"><time>2023-09-30T13:10:12.197</time></trkpt><trkpt lat="56.3855137" lon="43.8607351"><time>2023-09-30T13:10:14.200</time></trkpt><trkpt lat="56.3854639" lon="43.8607694"><time>2023-09-30T13:10:16.213</time></trkpt><trkpt lat="56.3854159" lon="43.8608073"><time>2023-09-30T13:10:18.190</time></trkpt><trkpt lat="56.3853591" lon="43.8608403"><time>2023-09-30T13:10:20.197</time></trkpt><trkpt lat="56.3853053" lon="43.8608778"><time>2023-09-30T13:10:22.217</time></trkpt><trkpt lat="56.3852551" lon="43.8609119"><time>2023-09-30T13:10:24.217</time></trkpt><trkpt lat="56.3851996" lon="43.8609481"><time>2023-09-30T13:10:26.213</time></trkpt><trkpt lat="56.3851479" lon="43.8609675"><time>2023-09-30T13:10:28.197</time></trkpt><trkpt lat="56.3850926" lon="43.8609977"><time>2023-09-30T13:10:30.210</time></trkpt><trkpt lat="56.3850217" lon="43.8610135"><time>2023-09-30T13:10:32.220</time></trkpt><trkpt lat="56.3849564" lon="43.8610318"><time>2023-09-30T13:10:34.197</time></trkpt><trkpt lat="56.3848902" lon="43.8610762"><time>2023-09-30T13:10:36.213</time></trkpt><trkpt lat="56.3848366" lon="43.8611088"><time>2023-09-30T13:10:38.217</time></trkpt><trkpt lat="56.3847673" lon="43.8611488"><time>2023-09-30T13:10:40.217</time></trkpt><trkpt lat="56.3847045" lon="43.8611761"><time>2023-09-30T13:10:42.227</time></trkpt><trkpt lat="56.3846353" lon="43.8611839"><time>2023-09-30T13:10:44.210</time></trkpt><trkpt lat="56.3845769" lon="43.8612104"><time>2023-09-30T13:10:46.210</time></trkpt><trkpt lat="56.3845222" lon="43.8612564"><time>2023-09-30T13:10:48.213</time></trkpt><trkpt lat="56.3844628" lon="43.8612900"><time>2023-09-30T13:10:50.213</time></trkpt><trkpt lat="56.3844032" lon="43.8613089"><time>2023-09-30T13:10:52.207</time></trkpt><trkpt lat="56.3843386" lon="43.8613418"><time>2023-09-30T13:10:54.210</time></trkpt><trkpt lat="56.3842770" lon="43.8613683"><time>2023-09-30T13:10:56.217</time></trkpt><trkpt lat="56.3842166" lon="43.8613985"><time>2023-09-30T13:10:58.217</time></trkpt><trkpt lat="56.3841527" lon="43.8614283"><time>2023-09-30T13:11:00.213</time></trkpt><trkpt lat="56.3840849" lon="43.8614417"><time>2023-09-30T13:11:02.197</time></trkpt><trkpt lat="56.3840279" lon="43.8614960"><time>2023-09-30T13:11:04.220</time></trkpt><trkpt lat="56.3839728" lon="43.8615404"><time>2023-09-30T13:11:06.213</time></trkpt><trkpt lat="56.3839204" lon="43.8615868"><time>2023-09-30T13:11:08.213</time></trkpt><trkpt lat="56.3838602" lon="43.8616303"><time>2023-09-30T13:11:10.213</time></trkpt><trkpt lat="56.3838093" lon="43.8616888"><time>2023-09-30T13:11:12.217</time></trkpt><trkpt lat="56.3837602" lon="43.8617353"><time>2023-09-30T13:11:14.217</time></trkpt><trkpt lat="56.3837061" lon="43.8617870"><time>2023-09-30T13:11:16.207</time></trkpt><trkpt lat="56.3836582" lon="43.8618352"><time>2023-09-30T13:11:18.217</time></trkpt><trkpt lat="56.3836021" lon="43.8618685"><time>2023-09-30T13:11:20.217</time></trkpt><trkpt lat="56.3835544" lon="43.8619048"><time>2023-09-30T13:11:22.213</time></trkpt><trkpt lat="56.3834917" lon="43.8619356"><time>2023-09-30T13:11:24.220</time></trkpt><trkpt lat="56.3834311" lon="43.8619746"><time>2023-09-30T13:11:26.217</time></trkpt><trkpt lat="56.3833714" lon="43.8620231"><time>2023-09-30T13:11:28.213</time></trkpt><trkpt lat="56.3833104" lon="43.8620730"><time>2023-09-30T13:11:30.210</time></trkpt><trkpt lat="56.3832596" lon="43.8621231"><time>2023-09-30T13:11:32.207</time></trkpt><trkpt lat="56.3832031" lon="43.8621673"><time>2023-09-30T13:11:34.213</time></trkpt><trkpt lat="56.3831499" lon="43.8622222"><time>2023-09-30T13:11:36.217</time></trkpt><trkpt lat="56.3830898" lon="43.8622686"><time>2023-09-30T13:11:38.213</time></trkpt><trkpt lat="56.3830321" lon="43.8623254"><time>2023-09-30T13:11:40.230</time></trkpt><trkpt lat="56.3829725" lon="43.8623728"><time>2023-09-30T13:11:42.213</time></trkpt><trkpt lat="56.3829166" lon="43.8624185"><time>2023-09-30T13:11:44.223</time></trkpt><trkpt lat="56.3828597" lon="43.8624670"><time>2023-09-30T13:11:46.217</time></trkpt><trkpt lat="56.3828053" lon="43.8625164"><time>2023-09-30T13:11:48.217</time></trkpt><trkpt lat="56.3827621" lon="43.8625635"><time>2023-09-30T13:11:50.207</time></trkpt><trkpt lat="56.3827137" lon="43.8626103"><time>2023-09-30T13:11:52.223</time></trkpt><trkpt lat="56.3826676" lon="43.8626649"><time>2023-09-30T13:11:54.227</time></trkpt><trkpt lat="56.3826098" lon="43.8627122"><time>2023-09-30T13:11:56.213</time></trkpt><trkpt lat="56.3825571" lon="43.8627641"><time>2023-09-30T13:11:58.213</time></trkpt><trkpt lat="56.3825100" lon="43.8628266"><time>2023-09-30T13:12:00.220</time></trkpt><trkpt lat="56.3824649" lon="43.8628861"><time>2023-09-30T13:12:02.217</time></trkpt><trkpt lat="56.3824180" lon="43.8629300"><time>2023-09-30T13:12:04.203</time></trkpt><trkpt lat="56.3823650" lon="43.8629786"><time>2023-09-30T13:12:06.220</time></trkpt><trkpt lat="56.3823012" lon="43.8630338"><time>2023-09-30T13:12:08.213</time></trkpt><trkpt lat="56.3822396" lon="43.8630900"><time>2023-09-30T13:12:10.197</time></trkpt><trkpt lat="56.3821781" lon="43.8631320"><time>2023-09-30T13:12:12.223</time></trkpt><trkpt lat="56.3821270" lon="43.8631831"><time>2023-09-30T13:12:14.217</time></trkpt><trkpt lat="56.3820839" lon="43.8632360"><time>2023-09-30T13:12:16.213</time></trkpt><trkpt lat="56.3820391" lon="43.8632817"><time>2023-09-30T13:12:18.220</time></trkpt><trkpt lat="56.3819916" lon="43.8633366"><time>2023-09-30T13:12:20.213</time></trkpt><trkpt lat="56.3819470" lon="43.8633903"><time>2023-09-30T13:12:22.217</time></trkpt><trkpt lat="56.3818974" lon="43.8634413"><time>2023-09-30T13:12:24.220</time></trkpt><trkpt lat="56.3818500" lon="43.8634803"><time>2023-09-30T13:12:26.203</time></trkpt><trkpt lat="56.3818072" lon="43.8635278"><time>2023-09-30T13:12:28.217</time></trkpt><trkpt lat="56.3817555" lon="43.8635695"><time>2023-09-30T13:12:30.213</time></trkpt><trkpt lat="56.3816980" lon="43.8636110"><time>2023-09-30T13:12:32.223</time></trkpt><trkpt lat="56.3816366" lon="43.8636522"><time>2023-09-30T13:12:34.213</time></trkpt><trkpt lat="56.3815845" lon="43.8637131"><time>2023-09-30T13:12:36.203</time></trkpt><trkpt lat="56.3815495" lon="43.8637844"><time>2023-09-30T13:12:38.223</time></trkpt><trkpt lat="56.3815060" lon="43.8638715"><time>2023-09-30T13:12:40.213</time></trkpt><trkpt lat="56.3814834" lon="43.8639612"><time>2023-09-30T13:12:42.197</time></trkpt><trkpt lat="56.3814593" lon="43.8640536"><time>2023-09-30T13:12:44.207</time></trkpt><trkpt lat="56.3814267" lon="43.8641417"><time>2023-09-30T13:12:46.220</time></trkpt><trkpt lat="56.3813973" lon="43.8642456"><time>2023-09-30T13:12:48.223</time></trkpt><trkpt lat="56.3813654" lon="43.8643387"><time>2023-09-30T13:12:50.213</time></trkpt><trkpt lat="56.3813373" lon="43.8644414"><time>2023-09-30T13:12:52.200</time></trkpt><trkpt lat="56.3813022" lon="43.8645503"><time>2023-09-30T13:12:54.213</time></trkpt><trkpt lat="56.3812559" lon="43.8646471"><time>2023-09-30T13:12:56.213</time></trkpt><trkpt lat="56.3811983" lon="43.8647150"><time>2023-09-30T13:12:58.220</time></trkpt><trkpt lat="56.3811449" lon="43.8647712"><time>2023-09-30T13:13:00.213</time></trkpt><trkpt lat="56.3810986" lon="43.8648389"><time>2023-09-30T13:13:02.217</time></trkpt><trkpt lat="56.3810637" lon="43.8649085"><time>2023-09-30T13:13:04.217</time></trkpt><trkpt lat="56.3810085" lon="43.8649580"><time>2023-09-30T13:13:06.217</time></trkpt><trkpt lat="56.3809602" lon="43.8650228"><time>2023-09-30T13:13:08.220</time></trkpt><trkpt lat="56.3808996" lon="43.8651068"><time>2023-09-30T13:13:10.217</time></trkpt><trkpt lat="56.3808590" lon="43.8651654"><time>2023-09-30T13:13:12.220</time></trkpt><trkpt lat="56.3808232" lon="43.8652363"><time>2023-09-30T13:13:14.217</time></trkpt><trkpt lat="56.3807618" lon="43.8652510"><time>2023-09-30T13:13:16.190</time></trkpt><trkpt lat="56.3807028" lon="43.8652882"><time>2023-09-30T13:13:18.230</time></trkpt><trkpt lat="56.3806515" lon="43.8653598"><time>2023-09-30T13:13:20.207</time></trkpt><trkpt lat="56.3806178" lon="43.8654420"><time>2023-09-30T13:13:22.237</time></trkpt><trkpt lat="56.3805882" lon="43.8654891"><time>2023-09-30T13:13:23.197</time></trkpt><trkpt lat="56.3805342" lon="43.8655493"><time>2023-09-30T13:13:25.210</time></trkpt><trkpt lat="56.3804727" lon="43.8655910"><time>2023-09-30T13:13:27.217</time></trkpt><trkpt lat="56.3803987" lon="43.8656135"><time>2023-09-30T13:13:29.197</time></trkpt><trkpt lat="56.3803394" lon="43.8656452"><time>2023-09-30T13:13:31.213</time></trkpt><trkpt lat="56.3802889" lon="43.8656903"><time>2023-09-30T13:13:33.220</time></trkpt><trkpt lat="56.3802432" lon="43.8657682"><time>2023-09-30T13:13:35.237</time></trkpt><trkpt lat="56.3802000" lon="43.8658478"><time>2023-09-30T13:13:37.217</time></trkpt><trkpt lat="56.3801697" lon="43.8659340"><time>2023-09-30T13:13:39.210</time></trkpt><trkpt lat="56.3801307" lon="43.8660155"><time>2023-09-30T13:13:41.217</time></trkpt><trkpt lat="56.3800950" lon="43.8661048"><time>2023-09-30T13:13:43.207</time></trkpt><trkpt lat="56.3800563" lon="43.8662028"><time>2023-09-30T13:13:45.217</time></trkpt><trkpt lat="56.3800339" lon="43.8663079"><time>2023-09-30T13:13:47.217</time></trkpt><trkpt lat="56.3800050" lon="43.8664221"><time>2023-09-30T13:13:49.213</time></trkpt><trkpt lat="56.3799618" lon="43.8665260"><time>2023-09-30T13:13:51.203</time></trkpt><trkpt lat="56.3799256" lon="43.8666237"><time>2023-09-30T13:13:53.220</time></trkpt><trkpt lat="56.3799139" lon="43.8666720"><time>2023-09-30T13:13:54.213</time></trkpt><trkpt lat="56.3798780" lon="43.8667698"><time>2023-09-30T13:13:56.193</time></trkpt><trkpt lat="56.3798179" lon="43.8668325"><time>2023-09-30T13:13:58.223</time></trkpt><trkpt lat="56.3797782" lon="43.8668986"><time>2023-09-30T13:14:00.213</time></trkpt><trkpt lat="56.3797448" lon="43.8669848"><time>2023-09-30T13:14:02.217</time></trkpt><trkpt lat="56.3797087" lon="43.8670819"><time>2023-09-30T13:14:04.230</time></trkpt><trkpt lat="56.3797272" lon="43.8672136"><time>2023-09-30T13:14:06.190</time></trkpt><trkpt lat="56.3797717" lon="43.8672936"><time>2023-09-30T13:14:08.217</time></trkpt><trkpt lat="56.3798329" lon="43.8673380"><time>2023-09-30T13:14:10.210</time></trkpt><trkpt lat="56.3799007" lon="43.8673883"><time>2023-09-30T13:14:12.220</time></trkpt><trkpt lat="56.3799475" lon="43.8674859"><time>2023-09-30T13:14:14.243</time></trkpt><trkpt lat="56.3799523" lon="43.8675428"><time>2023-09-30T13:14:15.220</time></trkpt><trkpt lat="56.3799415" lon="43.8676606"><time>2023-09-30T13:14:17.220</time></trkpt><trkpt lat="56.3798970" lon="43.8677549"><time>2023-09-30T13:14:19.223</time></trkpt><trkpt lat="56.3798554" lon="43.8678370"><time>2023-09-30T13:14:21.220</time></trkpt><trkpt lat="56.3798094" lon="43.8679252"><time>2023-09-30T13:14:23.223</time></trkpt><trkpt lat="56.3797501" lon="43.8679914"><time>2023-09-30T13:14:25.220</time></trkpt><trkpt lat="56.3797043" lon="43.8680618"><time>2023-09-30T13:14:27.230</time></trkpt><trkpt lat="56.3797043" lon="43.8680618"><time>2023-09-30T13:14:27.343</time></trkpt><trkpt lat="56.3796678" lon="43.8681110"><time>2023-09-30T13:14:29.237</time></trkpt><trkpt lat="56.3796466" lon="43.8681294"><time>2023-09-30T13:14:30.197</time></trkpt><trkpt lat="56.3795815" lon="43.8681194"><time>2023-09-30T13:14:32.227</time></trkpt><trkpt lat="56.3795184" lon="43.8681032"><time>2023-09-30T13:14:34.217</time></trkpt><trkpt lat="56.3794600" lon="43.8681059"><time>2023-09-30T13:14:36.223</time></trkpt><trkpt lat="56.3794139" lon="43.8681104"><time>2023-09-30T13:14:38.197</time></trkpt><trkpt lat="56.3793658" lon="43.8681291"><time>2023-09-30T13:14:40.223</time></trkpt><trkpt lat="56.3793152" lon="43.8681565"><time>2023-09-30T13:14:42.217</time></trkpt><trkpt lat="56.3792588" lon="43.8681706"><time>2023-09-30T13:14:44.223</time></trkpt><trkpt lat="56.3792088" lon="43.8681900"><time>2023-09-30T13:14:46.220</time></trkpt><trkpt lat="56.3791558" lon="43.8682119"><time>2023-09-30T13:14:48.217</time></trkpt><trkpt lat="56.3791027" lon="43.8682345"><time>2023-09-30T13:14:50.223</time></trkpt><trkpt lat="56.3790391" lon="43.8682470"><time>2023-09-30T13:14:52.223</time></trkpt><trkpt lat="56.3789757" lon="43.8682518"><time>2023-09-30T13:14:54.210</time></trkpt><trkpt lat="56.3789205" lon="43.8682510"><time>2023-09-30T13:14:56.213</time></trkpt><trkpt lat="56.3788707" lon="43.8682605"><time>2023-09-30T13:14:58.217</time></trkpt><trkpt lat="56.3788161" lon="43.8682806"><time>2023-09-30T13:15:00.223</time></trkpt><trkpt lat="56.3787606" lon="43.8682934"><time>2023-09-30T13:15:02.220</time></trkpt><trkpt lat="56.3787024" lon="43.8683209"><time>2023-09-30T13:15:04.213</time></trkpt><trkpt lat="56.3786465" lon="43.8683383"><time>2023-09-30T13:15:06.220</time></trkpt><trkpt lat="56.3785915" lon="43.8683590"><time>2023-09-30T13:15:08.210</time></trkpt><trkpt lat="56.3785446" lon="43.8683822"><time>2023-09-30T13:15:10.210</time></trkpt><trkpt lat="56.3784951" lon="43.8683990"><time>2023-09-30T13:15:12.220</time></trkpt><trkpt lat="56.3784424" lon="43.8684437"><time>2023-09-30T13:15:15.217</time></trkpt><trkpt lat="56.3783872" lon="43.8684645"><time>2023-09-30T13:15:17.223</time></trkpt><trkpt lat="56.3783334" lon="43.8684932"><time>2023-09-30T13:15:19.217</time></trkpt><trkpt lat="56.3782795" lon="43.8685033"><time>2023-09-30T13:15:21.217</time></trkpt><trkpt lat="56.3782318" lon="43.8685146"><time>2023-09-30T13:15:23.220</time></trkpt><trkpt lat="56.3781754" lon="43.8685197"><time>2023-09-30T13:15:25.217</time></trkpt><trkpt lat="56.3781090" lon="43.8685244"><time>2023-09-30T13:15:27.220</time></trkpt><trkpt lat="56.3780394" lon="43.8685359"><time>2023-09-30T13:15:29.213</time></trkpt><trkpt lat="56.3779771" lon="43.8685446"><time>2023-09-30T13:15:31.213</time></trkpt><trkpt lat="56.3779259" lon="43.8685487"><time>2023-09-30T13:15:33.213</time></trkpt><trkpt lat="56.3778563" lon="43.8685580"><time>2023-09-30T13:15:36.220</time></trkpt><trkpt lat="56.3777998" lon="43.8685580"><time>2023-09-30T13:15:38.213</time></trkpt><trkpt lat="56.3777429" lon="43.8685390"><time>2023-09-30T13:15:40.223</time></trkpt><trkpt lat="56.3776849" lon="43.8685316"><time>2023-09-30T13:15:42.210</time></trkpt><trkpt lat="56.3776322" lon="43.8685148"><time>2023-09-30T13:15:44.220</time></trkpt><trkpt lat="56.3775777" lon="43.8684833"><time>2023-09-30T13:15:46.223</time></trkpt><trkpt lat="56.3775256" lon="43.8684672"><time>2023-09-30T13:15:48.223</time></trkpt><trkpt lat="56.3774684" lon="43.8684543"><time>2023-09-30T13:15:50.213</time></trkpt><trkpt lat="56.3773952" lon="43.8684551"><time>2023-09-30T13:15:53.220</time></trkpt><trkpt lat="56.3773424" lon="43.8684486"><time>2023-09-30T13:15:55.220</time></trkpt><trkpt lat="56.3772804" lon="43.8684121"><time>2023-09-30T13:15:57.203</time></trkpt><trkpt lat="56.3772234" lon="43.8683686"><time>2023-09-30T13:15:59.217</time></trkpt><trkpt lat="56.3771655" lon="43.8683025"><time>2023-09-30T13:16:01.213</time></trkpt><trkpt lat="56.3771224" lon="43.8682222"><time>2023-09-30T13:16:03.203</time></trkpt><trkpt lat="56.3770891" lon="43.8681380"><time>2023-09-30T13:16:05.230</time></trkpt><trkpt lat="56.3770537" lon="43.8680421"><time>2023-09-30T13:16:07.217</time></trkpt><trkpt lat="56.3770283" lon="43.8679354"><time>2023-09-30T13:16:09.220</time></trkpt><trkpt lat="56.3770128" lon="43.8678151"><time>2023-09-30T13:16:11.220</time></trkpt><trkpt lat="56.3769850" lon="43.8677139"><time>2023-09-30T13:16:13.217</time></trkpt><trkpt lat="56.3769557" lon="43.8675956"><time>2023-09-30T13:16:15.217</time></trkpt><trkpt lat="56.3769183" lon="43.8675061"><time>2023-09-30T13:16:17.207</time></trkpt><trkpt lat="56.3768808" lon="43.8674333"><time>2023-09-30T13:16:19.193</time></trkpt><trkpt lat="56.3768475" lon="43.8673444"><time>2023-09-30T13:16:21.213</time></trkpt><trkpt lat="56.3768132" lon="43.8672576"><time>2023-09-30T13:16:23.210</time></trkpt><trkpt lat="56.3767834" lon="43.8671691"><time>2023-09-30T13:16:25.213</time></trkpt><trkpt lat="56.3767477" lon="43.8670590"><time>2023-09-30T13:16:28.210</time></trkpt><trkpt lat="56.3767087" lon="43.8669603"><time>2023-09-30T13:16:30.237</time></trkpt><trkpt lat="56.3766755" lon="43.8668686"><time>2023-09-30T13:16:32.217</time></trkpt><trkpt lat="56.3766438" lon="43.8667864"><time>2023-09-30T13:16:34.217</time></trkpt><trkpt lat="56.3766069" lon="43.8666806"><time>2023-09-30T13:16:36.200</time></trkpt><trkpt lat="56.3765707" lon="43.8665817"><time>2023-09-30T13:16:38.220</time></trkpt><trkpt lat="56.3765213" lon="43.8665023"><time>2023-09-30T13:16:40.210</time></trkpt><trkpt lat="56.3764775" lon="43.8664134"><time>2023-09-30T13:16:42.210</time></trkpt><trkpt lat="56.3764380" lon="43.8663404"><time>2023-09-30T13:16:44.207</time></trkpt><trkpt lat="56.3764025" lon="43.8662374"><time>2023-09-30T13:16:46.200</time></trkpt><trkpt lat="56.3763744" lon="43.8661288"><time>2023-09-30T13:16:48.210</time></trkpt><trkpt lat="56.3763517" lon="43.8660228"><time>2023-09-30T13:16:50.213</time></trkpt><trkpt lat="56.3763215" lon="43.8659326"><time>2023-09-30T13:16:52.210</time></trkpt><trkpt lat="56.3762782" lon="43.8658480"><time>2023-09-30T13:16:54.213</time></trkpt><trkpt lat="56.3762444" lon="43.8657518"><time>2023-09-30T13:16:56.207</time></trkpt><trkpt lat="56.3762099" lon="43.8656669"><time>2023-09-30T13:16:58.200</time></trkpt><trkpt lat="56.3761693" lon="43.8655534"><time>2023-09-30T13:17:00.207</time></trkpt><trkpt lat="56.3761356" lon="43.8654559"><time>2023-09-30T13:17:02.210</time></trkpt><trkpt lat="56.3761060" lon="43.8653674"><time>2023-09-30T13:17:04.220</time></trkpt><trkpt lat="56.3760815" lon="43.8652767"><time>2023-09-30T13:17:06.197</time></trkpt><trkpt lat="56.3760435" lon="43.8651756"><time>2023-09-30T13:17:08.207</time></trkpt><trkpt lat="56.3759956" lon="43.8650596"><time>2023-09-30T13:17:10.210</time></trkpt><trkpt lat="56.3759562" lon="43.8649616"><time>2023-09-30T13:17:12.207</time></trkpt><trkpt lat="56.3759333" lon="43.8648423"><time>2023-09-30T13:17:14.213</time></trkpt><trkpt lat="56.3759021" lon="43.8647315"><time>2023-09-30T13:17:16.200</time></trkpt><trkpt lat="56.3758731" lon="43.8646390"><time>2023-09-30T13:17:18.213</time></trkpt><trkpt lat="56.3758445" lon="43.8645409"><time>2023-09-30T13:17:20.217</time></trkpt><trkpt lat="56.3758011" lon="43.8644558"><time>2023-09-30T13:17:22.210</time></trkpt><trkpt lat="56.3757604" lon="43.8643663"><time>2023-09-30T13:17:24.213</time></trkpt><trkpt lat="56.3757190" lon="43.8642767"><time>2023-09-30T13:17:26.207</time></trkpt><trkpt lat="56.3756896" lon="43.8641722"><time>2023-09-30T13:17:28.200</time></trkpt><trkpt lat="56.3756538" lon="43.8640735"><time>2023-09-30T13:17:30.210</time></trkpt><trkpt lat="56.3756171" lon="43.8639823"><time>2023-09-30T13:17:32.213</time></trkpt><trkpt lat="56.3755781" lon="43.8638777"><time>2023-09-30T13:17:34.210</time></trkpt><trkpt lat="56.3755399" lon="43.8637641"><time>2023-09-30T13:17:36.207</time></trkpt><trkpt lat="56.3755120" lon="43.8636614"><time>2023-09-30T13:17:38.230</time></trkpt><trkpt lat="56.3754702" lon="43.8635735"><time>2023-09-30T13:17:40.217</time></trkpt><trkpt lat="56.3754345" lon="43.8634796"><time>2023-09-30T13:17:42.197</time></trkpt><trkpt lat="56.3754024" lon="43.8633897"><time>2023-09-30T13:17:44.197</time></trkpt><trkpt lat="56.3753695" lon="43.8632881"><time>2023-09-30T13:17:46.220</time></trkpt><trkpt lat="56.3753334" lon="43.8631772"><time>2023-09-30T13:17:48.220</time></trkpt><trkpt lat="56.3753022" lon="43.8630611"><time>2023-09-30T13:17:50.217</time></trkpt><trkpt lat="56.3752649" lon="43.8629385"><time>2023-09-30T13:17:52.220</time></trkpt><trkpt lat="56.3752405" lon="43.8628202"><time>2023-09-30T13:17:54.217</time></trkpt><trkpt lat="56.3752123" lon="43.8627237"><time>2023-09-30T13:17:56.210</time></trkpt><trkpt lat="56.3751905" lon="43.8626267"><time>2023-09-30T13:17:58.217</time></trkpt><trkpt lat="56.3751562" lon="43.8625359"><time>2023-09-30T13:18:00.197</time></trkpt><trkpt lat="56.3751235" lon="43.8624356"><time>2023-09-30T13:18:02.217</time></trkpt><trkpt lat="56.3750960" lon="43.8623500"><time>2023-09-30T13:18:04.217</time></trkpt><trkpt lat="56.3750537" lon="43.8622508"><time>2023-09-30T13:18:06.227</time></trkpt><trkpt lat="56.3750197" lon="43.8621597"><time>2023-09-30T13:18:08.220</time></trkpt><trkpt lat="56.3749922" lon="43.8620576"><time>2023-09-30T13:18:10.207</time></trkpt><trkpt lat="56.3749666" lon="43.8619495"><time>2023-09-30T13:18:12.230</time></trkpt><trkpt lat="56.3749521" lon="43.8618387"><time>2023-09-30T13:18:14.223</time></trkpt><trkpt lat="56.3749151" lon="43.8617397"><time>2023-09-30T13:18:16.200</time></trkpt><trkpt lat="56.3748812" lon="43.8616445"><time>2023-09-30T13:18:18.220</time></trkpt><trkpt lat="56.3748414" lon="43.8615477"><time>2023-09-30T13:18:20.217</time></trkpt><trkpt lat="56.3748041" lon="43.8614595"><time>2023-09-30T13:18:22.227</time></trkpt><trkpt lat="56.3747637" lon="43.8613801"><time>2023-09-30T13:18:24.220</time></trkpt><trkpt lat="56.3747251" lon="43.8612899"><time>2023-09-30T13:18:26.223</time></trkpt><trkpt lat="56.3746826" lon="43.8611929"><time>2023-09-30T13:18:28.217</time></trkpt><trkpt lat="56.3746570" lon="43.8611022"><time>2023-09-30T13:18:30.217</time></trkpt><trkpt lat="56.3746279" lon="43.8609839"><time>2023-09-30T13:18:32.210</time></trkpt><trkpt lat="56.3746073" lon="43.8608838"><time>2023-09-30T13:18:34.217</time></trkpt><trkpt lat="56.3745736" lon="43.8607830"><time>2023-09-30T13:18:36.210</time></trkpt><trkpt lat="56.3745614" lon="43.8606733"><time>2023-09-30T13:18:38.210</time></trkpt><trkpt lat="56.3745502" lon="43.8605815"><time>2023-09-30T13:18:40.213</time></trkpt><trkpt lat="56.3745335" lon="43.8604625"><time>2023-09-30T13:18:42.223</time></trkpt><trkpt lat="56.3745114" lon="43.8603549"><time>2023-09-30T13:18:44.207</time></trkpt><trkpt lat="56.3744788" lon="43.8602486"><time>2023-09-30T13:18:46.220</time></trkpt><trkpt lat="56.3744552" lon="43.8601386"><time>2023-09-30T13:18:48.217</time></trkpt><trkpt lat="56.3744232" lon="43.8600195"><time>2023-09-30T13:18:50.197</time></trkpt><trkpt lat="56.3743905" lon="43.8599252"><time>2023-09-30T13:18:52.220</time></trkpt><trkpt lat="56.3743543" lon="43.8598312"><time>2023-09-30T13:18:54.223</time></trkpt><trkpt lat="56.3743203" lon="43.8597323"><time>2023-09-30T13:18:56.220</time></trkpt><trkpt lat="56.3742978" lon="43.8596308"><time>2023-09-30T13:18:58.227</time></trkpt><trkpt lat="56.3742767" lon="43.8595375"><time>2023-09-30T13:19:00.220</time></trkpt><trkpt lat="56.3742607" lon="43.8594378"><time>2023-09-30T13:19:02.220</time></trkpt><trkpt lat="56.3742333" lon="43.8593457"><time>2023-09-30T13:19:04.200</time></trkpt><trkpt lat="56.3742117" lon="43.8592580"><time>2023-09-30T13:19:06.197</time></trkpt><trkpt lat="56.3741836" lon="43.8591699"><time>2023-09-30T13:19:08.210</time></trkpt><trkpt lat="56.3741610" lon="43.8590647"><time>2023-09-30T13:19:10.203</time></trkpt><trkpt lat="56.3741379" lon="43.8589534"><time>2023-09-30T13:19:12.223</time></trkpt><trkpt lat="56.3741095" lon="43.8588462"><time>2023-09-30T13:19:14.210</time></trkpt><trkpt lat="56.3740867" lon="43.8587383"><time>2023-09-30T13:19:16.230</time></trkpt><trkpt lat="56.3740525" lon="43.8586385"><time>2023-09-30T13:19:18.217</time></trkpt><trkpt lat="56.3740163" lon="43.8585375"><time>2023-09-30T13:19:20.217</time></trkpt><trkpt lat="56.3739850" lon="43.8584294"><time>2023-09-30T13:19:22.223</time></trkpt><trkpt lat="56.3739599" lon="43.8583144"><time>2023-09-30T13:19:24.220</time></trkpt><trkpt lat="56.3739446" lon="43.8581946"><time>2023-09-30T13:19:26.227</time></trkpt><trkpt lat="56.3739245" lon="43.8581143"><time>2023-09-30T13:19:28.227</time></trkpt><trkpt lat="56.3738991" lon="43.8580141"><time>2023-09-30T13:19:30.217</time></trkpt><trkpt lat="56.3738627" lon="43.8579015"><time>2023-09-30T13:19:32.210</time></trkpt><trkpt lat="56.3738352" lon="43.8577972"><time>2023-09-30T13:19:34.220</time></trkpt><trkpt lat="56.3738050" lon="43.8576992"><time>2023-09-30T13:19:36.217</time></trkpt><trkpt lat="56.3737697" lon="43.8576085"><time>2023-09-30T13:19:38.223</time></trkpt><trkpt lat="56.3737346" lon="43.8574939"><time>2023-09-30T13:19:40.210</time></trkpt><trkpt lat="56.3737084" lon="43.8573861"><time>2023-09-30T13:19:42.217</time></trkpt><trkpt lat="56.3736815" lon="43.8572818"><time>2023-09-30T13:19:44.217</time></trkpt><trkpt lat="56.3736552" lon="43.8571918"><time>2023-09-30T13:19:46.217</time></trkpt><trkpt lat="56.3736265" lon="43.8570698"><time>2023-09-30T13:19:48.220</time></trkpt><trkpt lat="56.3735972" lon="43.8569597"><time>2023-09-30T13:19:50.213</time></trkpt><trkpt lat="56.3735743" lon="43.8568534"><time>2023-09-30T13:19:52.220</time></trkpt><trkpt lat="56.3735412" lon="43.8567628"><time>2023-09-30T13:19:54.223</time></trkpt><trkpt lat="56.3735041" lon="43.8566688"><time>2023-09-30T13:19:56.223</time></trkpt><trkpt lat="56.3734630" lon="43.8565874"><time>2023-09-30T13:19:58.207</time></trkpt><trkpt lat="56.3734404" lon="43.8564965"><time>2023-09-30T13:20:00.207</time></trkpt><trkpt lat="56.3734122" lon="43.8563976"><time>2023-09-30T13:20:02.223</time></trkpt><trkpt lat="56.3733926" lon="43.8563030"><time>2023-09-30T13:20:04.237</time></trkpt><trkpt lat="56.3733761" lon="43.8562597"><time>2023-09-30T13:20:05.200</time></trkpt><trkpt lat="56.3733652" lon="43.8561765"><time>2023-09-30T13:20:07.193</time></trkpt><trkpt lat="56.3733563" lon="43.8560831"><time>2023-09-30T13:20:09.210</time></trkpt><trkpt lat="56.3733281" lon="43.8559941"><time>2023-09-30T13:20:11.220</time></trkpt><trkpt lat="56.3733010" lon="43.8558996"><time>2023-09-30T13:20:13.193</time></trkpt><trkpt lat="56.3732867" lon="43.8558018"><time>2023-09-30T13:20:15.207</time></trkpt><trkpt lat="56.3732520" lon="43.8557111"><time>2023-09-30T13:20:17.217</time></trkpt><trkpt lat="56.3732316" lon="43.8556122"><time>2023-09-30T13:20:19.203</time></trkpt><trkpt lat="56.3732061" lon="43.8555029"><time>2023-09-30T13:20:21.220</time></trkpt><trkpt lat="56.3731723" lon="43.8554050"><time>2023-09-30T13:20:23.193</time></trkpt><trkpt lat="56.3731395" lon="43.8553100"><time>2023-09-30T13:20:25.217</time></trkpt><trkpt lat="56.3731044" lon="43.8552080"><time>2023-09-30T13:20:27.210</time></trkpt><trkpt lat="56.3730629" lon="43.8551211"><time>2023-09-30T13:20:29.210</time></trkpt><trkpt lat="56.3730441" lon="43.8550358"><time>2023-09-30T13:20:31.193</time></trkpt><trkpt lat="56.3730219" lon="43.8549483"><time>2023-09-30T13:20:33.200</time></trkpt><trkpt lat="56.3729955" lon="43.8548500"><time>2023-09-30T13:20:35.237</time></trkpt><trkpt lat="56.3729806" lon="43.8547965"><time>2023-09-30T13:20:36.207</time></trkpt><trkpt lat="56.3729550" lon="43.8546990"><time>2023-09-30T13:20:38.217</time></trkpt><trkpt lat="56.3729228" lon="43.8546086"><time>2023-09-30T13:20:40.217</time></trkpt><trkpt lat="56.3728984" lon="43.8545151"><time>2023-09-30T13:20:42.223</time></trkpt><trkpt lat="56.3728711" lon="43.8544044"><time>2023-09-30T13:20:44.210</time></trkpt><trkpt lat="56.3728428" lon="43.8542933"><time>2023-09-30T13:20:46.223</time></trkpt><trkpt lat="56.3728162" lon="43.8541900"><time>2023-09-30T13:20:48.227</time></trkpt><trkpt lat="56.3728032" lon="43.8541411"><time>2023-09-30T13:20:49.200</time></trkpt><trkpt lat="56.3727768" lon="43.8540424"><time>2023-09-30T13:20:51.203</time></trkpt><trkpt lat="56.3727497" lon="43.8539409"><time>2023-09-30T13:20:53.217</time></trkpt><trkpt lat="56.3727108" lon="43.8538309"><time>2023-09-30T13:20:55.220</time></trkpt><trkpt lat="56.3726844" lon="43.8537403"><time>2023-09-30T13:20:57.220</time></trkpt><trkpt lat="56.3726599" lon="43.8536409"><time>2023-09-30T13:20:59.210</time></trkpt><trkpt lat="56.3726392" lon="43.8535415"><time>2023-09-30T13:21:01.233</time></trkpt><trkpt lat="56.3726392" lon="43.8535415"><time>2023-09-30T13:21:01.277</time></trkpt><trkpt lat="56.3726068" lon="43.8534432"><time>2023-09-30T13:21:03.247</time></trkpt><trkpt lat="56.3725896" lon="43.8533967"><time>2023-09-30T13:21:04.190</time></trkpt><trkpt lat="56.3726573" lon="43.8533966"><time>2023-09-30T13:21:09.200</time></trkpt><trkpt lat="56.3727032" lon="43.8533589"><time>2023-09-30T13:21:11.217</time></trkpt><trkpt lat="56.3727249" lon="43.8532473"><time>2023-09-30T13:21:14.187</time></trkpt><trkpt lat="56.3727960" lon="43.8532559"><time>2023-09-30T13:21:17.213</time></trkpt><trkpt lat="56.3728678" lon="43.8532467"><time>2023-09-30T13:21:19.213</time></trkpt><trkpt lat="56.3729280" lon="43.8532004"><time>2023-09-30T13:21:21.213</time></trkpt><trkpt lat="56.3729522" lon="43.8531286"><time>2023-09-30T13:21:24.220</time></trkpt><trkpt lat="56.3730018" lon="43.8530804"><time>2023-09-30T13:21:29.220</time></trkpt><trkpt lat="56.3730343" lon="43.8530200"><time>2023-09-30T13:21:33.220</time></trkpt><trkpt lat="56.3730638" lon="43.8529299"><time>2023-09-30T13:21:37.223</time></trkpt><trkpt lat="56.3731021" lon="43.8528826"><time>2023-09-30T13:21:39.217</time></trkpt><trkpt lat="56.3731602" lon="43.8528698"><time>2023-09-30T13:21:42.223</time></trkpt><trkpt lat="56.3732198" lon="43.8528355"><time>2023-09-30T13:21:45.227</time></trkpt><trkpt lat="56.3732457" lon="43.8527692"><time>2023-09-30T13:21:47.213</time></trkpt><trkpt lat="56.3732684" lon="43.8526799"><time>2023-09-30T13:21:49.223</time></trkpt><trkpt lat="56.3732866" lon="43.8525827"><time>2023-09-30T13:21:51.213</time></trkpt><trkpt lat="56.3733078" lon="43.8524828"><time>2023-09-30T13:21:53.217</time></trkpt><trkpt lat="56.3733216" lon="43.8523806"><time>2023-09-30T13:21:55.203</time></trkpt><trkpt lat="56.3733560" lon="43.8522874"><time>2023-09-30T13:21:57.220</time></trkpt><trkpt lat="56.3733664" lon="43.8521857"><time>2023-09-30T13:21:59.220</time></trkpt><trkpt lat="56.3733502" lon="43.8520963"><time>2023-09-30T13:22:01.220</time></trkpt><trkpt lat="56.3733370" lon="43.8519777"><time>2023-09-30T13:22:04.213</time></trkpt><trkpt lat="56.3733622" lon="43.8519059"><time>2023-09-30T13:22:06.227</time></trkpt><trkpt lat="56.3734034" lon="43.8518624"><time>2023-09-30T13:22:08.217</time></trkpt><trkpt lat="56.3734549" lon="43.8518336"><time>2023-09-30T13:22:11.210</time></trkpt><trkpt lat="56.3734988" lon="43.8517802"><time>2023-09-30T13:22:13.203</time></trkpt><trkpt lat="56.3735243" lon="43.8517130"><time>2023-09-30T13:22:15.180</time></trkpt><trkpt lat="56.3735460" lon="43.8516272"><time>2023-09-30T13:22:17.217</time></trkpt><trkpt lat="56.3735812" lon="43.8515656"><time>2023-09-30T13:22:19.220</time></trkpt><trkpt lat="56.3736278" lon="43.8515019"><time>2023-09-30T13:22:21.190</time></trkpt><trkpt lat="56.3736617" lon="43.8514243"><time>2023-09-30T13:22:23.200</time></trkpt><trkpt lat="56.3736797" lon="43.8513491"><time>2023-09-30T13:22:25.213</time></trkpt><trkpt lat="56.3737200" lon="43.8512730"><time>2023-09-30T13:22:27.207</time></trkpt><trkpt lat="56.3737652" lon="43.8511822"><time>2023-09-30T13:22:29.217</time></trkpt><trkpt lat="56.3738102" lon="43.8510607"><time>2023-09-30T13:22:31.207</time></trkpt><trkpt lat="56.3738449" lon="43.8509548"><time>2023-09-30T13:22:33.220</time></trkpt><trkpt lat="56.3738823" lon="43.8508470"><time>2023-09-30T13:22:35.203</time></trkpt><trkpt lat="56.3739290" lon="43.8507208"><time>2023-09-30T13:22:37.220</time></trkpt><trkpt lat="56.3739597" lon="43.8505907"><time>2023-09-30T13:22:39.223</time></trkpt><trkpt lat="56.3739814" lon="43.8504851"><time>2023-09-30T13:22:41.207</time></trkpt><trkpt lat="56.3740015" lon="43.8504040"><time>2023-09-30T13:22:43.213</time></trkpt><trkpt lat="56.3740387" lon="43.8503165"><time>2023-09-30T13:22:45.200</time></trkpt><trkpt lat="56.3740872" lon="43.8502260"><time>2023-09-30T13:22:47.207</time></trkpt><trkpt lat="56.3741447" lon="43.8501494"><time>2023-09-30T13:22:49.203</time></trkpt><trkpt lat="56.3742000" lon="43.8500761"><time>2023-09-30T13:22:51.207</time></trkpt><trkpt lat="56.3742480" lon="43.8499887"><time>2023-09-30T13:22:53.220</time></trkpt><trkpt lat="56.3743004" lon="43.8498993"><time>2023-09-30T13:22:55.217</time></trkpt><trkpt lat="56.3743541" lon="43.8498226"><time>2023-09-30T13:22:57.203</time></trkpt><trkpt lat="56.3743982" lon="43.8497226"><time>2023-09-30T13:22:59.217</time></trkpt><trkpt lat="56.3744390" lon="43.8496243"><time>2023-09-30T13:23:01.213</time></trkpt><trkpt lat="56.3744602" lon="43.8495077"><time>2023-09-30T13:23:03.217</time></trkpt><trkpt lat="56.3744950" lon="43.8494205"><time>2023-09-30T13:23:05.193</time></trkpt><trkpt lat="56.3745184" lon="43.8493381"><time>2023-09-30T13:23:07.197</time></trkpt><trkpt lat="56.3745277" lon="43.8492437"><time>2023-09-30T13:23:09.213</time></trkpt><trkpt lat="56.3745697" lon="43.8491683"><time>2023-09-30T13:23:11.207</time></trkpt><trkpt lat="56.3746088" lon="43.8490798"><time>2023-09-30T13:23:13.217</time></trkpt><trkpt lat="56.3746430" lon="43.8489891"><time>2023-09-30T13:23:15.213</time></trkpt><trkpt lat="56.3746763" lon="43.8489079"><time>2023-09-30T13:23:17.217</time></trkpt><trkpt lat="56.3747036" lon="43.8488342"><time>2023-09-30T13:23:19.183</time></trkpt><trkpt lat="56.3747227" lon="43.8487424"><time>2023-09-30T13:23:21.207</time></trkpt><trkpt lat="56.3747478" lon="43.8486322"><time>2023-09-30T13:23:23.213</time></trkpt><trkpt lat="56.3747721" lon="43.8485337"><time>2023-09-30T13:23:25.220</time></trkpt><trkpt lat="56.3747967" lon="43.8484403"><time>2023-09-30T13:23:27.197</time></trkpt><trkpt lat="56.3748221" lon="43.8483407"><time>2023-09-30T13:23:29.197</time></trkpt><trkpt lat="56.3748611" lon="43.8482419"><time>2023-09-30T13:23:31.210</time></trkpt><trkpt lat="56.3749080" lon="43.8481728"><time>2023-09-30T13:23:33.213</time></trkpt><trkpt lat="56.3749481" lon="43.8480831"><time>2023-09-30T13:23:35.190</time></trkpt><trkpt lat="56.3749914" lon="43.8479856"><time>2023-09-30T13:23:37.210</time></trkpt><trkpt lat="56.3750396" lon="43.8478946"><time>2023-09-30T13:23:39.217</time></trkpt><trkpt lat="56.3750685" lon="43.8477913"><time>2023-09-30T13:23:41.200</time></trkpt><trkpt lat="56.3751086" lon="43.8476923"><time>2023-09-30T13:23:43.217</time></trkpt><trkpt lat="56.3751533" lon="43.8475694"><time>2023-09-30T13:23:45.197</time></trkpt><trkpt lat="56.3752020" lon="43.8474721"><time>2023-09-30T13:23:47.213</time></trkpt><trkpt lat="56.3752344" lon="43.8473550"><time>2023-09-30T13:23:49.220</time></trkpt><trkpt lat="56.3752800" lon="43.8472471"><time>2023-09-30T13:23:51.193</time></trkpt><trkpt lat="56.3753234" lon="43.8471455"><time>2023-09-30T13:23:53.210</time></trkpt><trkpt lat="56.3753715" lon="43.8470411"><time>2023-09-30T13:23:55.217</time></trkpt><trkpt lat="56.3754132" lon="43.8469553"><time>2023-09-30T13:23:57.217</time></trkpt><trkpt lat="56.3754698" lon="43.8468830"><time>2023-09-30T13:23:59.217</time></trkpt><trkpt lat="56.3755264" lon="43.8468137"><time>2023-09-30T13:24:01.203</time></trkpt><trkpt lat="56.3755925" lon="43.8467410"><time>2023-09-30T13:24:03.217</time></trkpt><trkpt lat="56.3756469" lon="43.8466651"><time>2023-09-30T13:24:05.210</time></trkpt><trkpt lat="56.3756965" lon="43.8465913"><time>2023-09-30T13:24:07.200</time></trkpt><trkpt lat="56.3757341" lon="43.8464995"><time>2023-09-30T13:24:09.220</time></trkpt><trkpt lat="56.3757587" lon="43.8463904"><time>2023-09-30T13:24:11.207</time></trkpt><trkpt lat="56.3758053" lon="43.8462961"><time>2023-09-30T13:24:13.213</time></trkpt><trkpt lat="56.3758451" lon="43.8461987"><time>2023-09-30T13:24:15.217</time></trkpt><trkpt lat="56.3758840" lon="43.8461038"><time>2023-09-30T13:24:17.213</time></trkpt><trkpt lat="56.3759179" lon="43.8460018"><time>2023-09-30T13:24:19.200</time></trkpt><trkpt lat="56.3759499" lon="43.8458993"><time>2023-09-30T13:24:21.217</time></trkpt><trkpt lat="56.3759786" lon="43.8457978"><time>2023-09-30T13:24:23.210</time></trkpt><trkpt lat="56.3760037" lon="43.8456912"><time>2023-09-30T13:24:25.217</time></trkpt><trkpt lat="56.3760397" lon="43.8455658"><time>2023-09-30T13:24:27.220</time></trkpt><trkpt lat="56.3760665" lon="43.8454794"><time>2023-09-30T13:24:29.210</time></trkpt><trkpt lat="56.3761005" lon="43.8453668"><time>2023-09-30T13:24:31.207</time></trkpt><trkpt lat="56.3761342" lon="43.8452813"><time>2023-09-30T13:24:33.193</time></trkpt><trkpt lat="56.3761787" lon="43.8452093"><time>2023-09-30T13:24:35.217</time></trkpt><trkpt lat="56.3762219" lon="43.8451396"><time>2023-09-30T13:24:37.217</time></trkpt><trkpt lat="56.3762448" lon="43.8450357"><time>2023-09-30T13:24:39.207</time></trkpt><trkpt lat="56.3762570" lon="43.8449140"><time>2023-09-30T13:24:41.210</time></trkpt><trkpt lat="56.3762909" lon="43.8448265"><time>2023-09-30T13:24:43.223</time></trkpt><trkpt lat="56.3763138" lon="43.8447326"><time>2023-09-30T13:24:45.210</time></trkpt><trkpt lat="56.3763379" lon="43.8446603"><time>2023-09-30T13:24:46.203</time></trkpt><trkpt lat="56.3763740" lon="43.8445424"><time>2023-09-30T13:24:48.200</time></trkpt><trkpt lat="56.3764158" lon="43.8444396"><time>2023-09-30T13:24:50.217</time></trkpt><trkpt lat="56.3764661" lon="43.8443426"><time>2023-09-30T13:24:52.203</time></trkpt><trkpt lat="56.3765188" lon="43.8442347"><time>2023-09-30T13:24:54.210</time></trkpt><trkpt lat="56.3765656" lon="43.8441363"><time>2023-09-30T13:24:56.217</time></trkpt><trkpt lat="56.3766151" lon="43.8440328"><time>2023-09-30T13:24:58.203</time></trkpt><trkpt lat="56.3766374" lon="43.8439162"><time>2023-09-30T13:25:00.193</time></trkpt><trkpt lat="56.3766855" lon="43.8438411"><time>2023-09-30T13:25:02.213</time></trkpt><trkpt lat="56.3767372" lon="43.8437738"><time>2023-09-30T13:25:04.207</time></trkpt><trkpt lat="56.3767726" lon="43.8436884"><time>2023-09-30T13:25:06.190</time></trkpt><trkpt lat="56.3767996" lon="43.8435883"><time>2023-09-30T13:25:08.217</time></trkpt><trkpt lat="56.3768425" lon="43.8435006"><time>2023-09-30T13:25:10.210</time></trkpt><trkpt lat="56.3768864" lon="43.8434006"><time>2023-09-30T13:25:12.227</time></trkpt><trkpt lat="56.3769195" lon="43.8432962"><time>2023-09-30T13:25:14.200</time></trkpt><trkpt lat="56.3769483" lon="43.8431925"><time>2023-09-30T13:25:16.213</time></trkpt><trkpt lat="56.3769912" lon="43.8430971"><time>2023-09-30T13:25:18.217</time></trkpt><trkpt lat="56.3770179" lon="43.8429975"><time>2023-09-30T13:25:20.207</time></trkpt><trkpt lat="56.3770411" lon="43.8428756"><time>2023-09-30T13:25:22.227</time></trkpt><trkpt lat="56.3770588" lon="43.8427676"><time>2023-09-30T13:25:24.207</time></trkpt><trkpt lat="56.3770927" lon="43.8426717"><time>2023-09-30T13:25:26.220</time></trkpt><trkpt lat="56.3771213" lon="43.8426017"><time>2023-09-30T13:25:28.220</time></trkpt><trkpt lat="56.3771500" lon="43.8425142"><time>2023-09-30T13:25:30.217</time></trkpt><trkpt lat="56.3771781" lon="43.8424294"><time>2023-09-30T13:25:32.190</time></trkpt><trkpt lat="56.3772107" lon="43.8423407"><time>2023-09-30T13:25:34.217</time></trkpt><trkpt lat="56.3772300" lon="43.8422378"><time>2023-09-30T13:25:36.217</time></trkpt><trkpt lat="56.3772553" lon="43.8421344"><time>2023-09-30T13:25:38.207</time></trkpt><trkpt lat="56.3772918" lon="43.8420305"><time>2023-09-30T13:25:40.220</time></trkpt><trkpt lat="56.3773538" lon="43.8419203"><time>2023-09-30T13:25:42.217</time></trkpt><trkpt lat="56.3773863" lon="43.8418025"><time>2023-09-30T13:25:44.213</time></trkpt><trkpt lat="56.3773949" lon="43.8416948"><time>2023-09-30T13:25:46.213</time></trkpt><trkpt lat="56.3774181" lon="43.8415928"><time>2023-09-30T13:25:48.193</time></trkpt><trkpt lat="56.3774597" lon="43.8414954"><time>2023-09-30T13:25:50.213</time></trkpt><trkpt lat="56.3775127" lon="43.8413940"><time>2023-09-30T13:25:52.193</time></trkpt><trkpt lat="56.3775575" lon="43.8413048"><time>2023-09-30T13:25:54.197</time></trkpt><trkpt lat="56.3775914" lon="43.8412166"><time>2023-09-30T13:25:56.217</time></trkpt><trkpt lat="56.3776248" lon="43.8411269"><time>2023-09-30T13:25:58.213</time></trkpt><trkpt lat="56.3776528" lon="43.8410612"><time>2023-09-30T13:26:00.200</time></trkpt><trkpt lat="56.3776923" lon="43.8409791"><time>2023-09-30T13:26:02.203</time></trkpt><trkpt lat="56.3777252" lon="43.8408809"><time>2023-09-30T13:26:04.193</time></trkpt><trkpt lat="56.3777650" lon="43.8407974"><time>2023-09-30T13:26:06.213</time></trkpt><trkpt lat="56.3777988" lon="43.8407054"><time>2023-09-30T13:26:08.217</time></trkpt><trkpt lat="56.3778149" lon="43.8406004"><time>2023-09-30T13:26:10.213</time></trkpt><trkpt lat="56.3778336" lon="43.8404916"><time>2023-09-30T13:26:12.193</time></trkpt><trkpt lat="56.3778615" lon="43.8403955"><time>2023-09-30T13:26:14.207</time></trkpt><trkpt lat="56.3778933" lon="43.8402991"><time>2023-09-30T13:26:16.213</time></trkpt><trkpt lat="56.3779036" lon="43.8402145"><time>2023-09-30T13:26:18.187</time></trkpt><trkpt lat="56.3779177" lon="43.8401202"><time>2023-09-30T13:26:20.190</time></trkpt><trkpt lat="56.3779276" lon="43.8400074"><time>2023-09-30T13:26:22.220</time></trkpt><trkpt lat="56.3779527" lon="43.8398983"><time>2023-09-30T13:26:24.213</time></trkpt><trkpt lat="56.3779797" lon="43.8397997"><time>2023-09-30T13:26:26.213</time></trkpt><trkpt lat="56.3780224" lon="43.8397276"><time>2023-09-30T13:26:28.217</time></trkpt><trkpt lat="56.3780760" lon="43.8396701"><time>2023-09-30T13:26:30.193</time></trkpt><trkpt lat="56.3781232" lon="43.8395956"><time>2023-09-30T13:26:32.213</time></trkpt><trkpt lat="56.3781753" lon="43.8395228"><time>2023-09-30T13:26:34.210</time></trkpt><trkpt lat="56.3782260" lon="43.8394602"><time>2023-09-30T13:26:36.210</time></trkpt><trkpt lat="56.3782735" lon="43.8393868"><time>2023-09-30T13:26:38.233</time></trkpt><trkpt lat="56.3782925" lon="43.8393520"><time>2023-09-30T13:26:39.217</time></trkpt><trkpt lat="56.3783228" lon="43.8392713"><time>2023-09-30T13:26:41.227</time></trkpt><trkpt lat="56.3783699" lon="43.8391796"><time>2023-09-30T13:26:43.210</time></trkpt><trkpt lat="56.3784066" lon="43.8390863"><time>2023-09-30T13:26:45.220</time></trkpt><trkpt lat="56.3784446" lon="43.8390050"><time>2023-09-30T13:26:47.210</time></trkpt><trkpt lat="56.3784717" lon="43.8389176"><time>2023-09-30T13:26:49.217</time></trkpt><trkpt lat="56.3785040" lon="43.8388455"><time>2023-09-30T13:26:51.213</time></trkpt><trkpt lat="56.3785394" lon="43.8387646"><time>2023-09-30T13:26:53.203</time></trkpt><trkpt lat="56.3785748" lon="43.8386861"><time>2023-09-30T13:26:55.190</time></trkpt><trkpt lat="56.3786056" lon="43.8386036"><time>2023-09-30T13:26:57.233</time></trkpt><trkpt lat="56.3786411" lon="43.8385009"><time>2023-09-30T13:26:59.203</time></trkpt><trkpt lat="56.3786761" lon="43.8384000"><time>2023-09-30T13:27:01.213</time></trkpt><trkpt lat="56.3787161" lon="43.8382976"><time>2023-09-30T13:27:03.197</time></trkpt><trkpt lat="56.3787555" lon="43.8382040"><time>2023-09-30T13:27:05.207</time></trkpt><trkpt lat="56.3788004" lon="43.8381281"><time>2023-09-30T13:27:07.243</time></trkpt><trkpt lat="56.3788223" lon="43.8380925"><time>2023-09-30T13:27:08.220</time></trkpt><trkpt lat="56.3788706" lon="43.8380099"><time>2023-09-30T13:27:10.223</time></trkpt><trkpt lat="56.3789041" lon="43.8379089"><time>2023-09-30T13:27:12.217</time></trkpt><trkpt lat="56.3789280" lon="43.8378075"><time>2023-09-30T13:27:14.217</time></trkpt><trkpt lat="56.3789700" lon="43.8377275"><time>2023-09-30T13:27:16.213</time></trkpt><trkpt lat="56.3790151" lon="43.8376466"><time>2023-09-30T13:27:18.217</time></trkpt><trkpt lat="56.3790597" lon="43.8375683"><time>2023-09-30T13:27:20.200</time></trkpt><trkpt lat="56.3790984" lon="43.8374970"><time>2023-09-30T13:27:22.193</time></trkpt><trkpt lat="56.3791154" lon="43.8374601"><time>2023-09-30T13:27:23.193</time></trkpt><trkpt lat="56.3791488" lon="43.8373899"><time>2023-09-30T13:27:25.197</time></trkpt><trkpt lat="56.3791991" lon="43.8373295"><time>2023-09-30T13:27:27.210</time></trkpt><trkpt lat="56.3792454" lon="43.8372599"><time>2023-09-30T13:27:29.197</time></trkpt><trkpt lat="56.3792726" lon="43.8371552"><time>2023-09-30T13:27:31.203</time></trkpt><trkpt lat="56.3793175" lon="43.8370882"><time>2023-09-30T13:27:33.223</time></trkpt><trkpt lat="56.3793647" lon="43.8370365"><time>2023-09-30T13:27:35.227</time></trkpt><trkpt lat="56.3793647" lon="43.8370365"><time>2023-09-30T13:27:35.267</time></trkpt><trkpt lat="56.3794114" lon="43.8370046"><time>2023-09-30T13:27:38.217</time></trkpt><trkpt lat="56.3794308" lon="43.8370258"><time>2023-09-30T13:27:39.200</time></trkpt><trkpt lat="56.3794730" lon="43.8370725"><time>2023-09-30T13:27:41.200</time></trkpt><trkpt lat="56.3795175" lon="43.8371060"><time>2023-09-30T13:27:43.210</time></trkpt><trkpt lat="56.3795728" lon="43.8371560"><time>2023-09-30T13:27:45.197</time></trkpt><trkpt lat="56.3796103" lon="43.8372077"><time>2023-09-30T13:27:47.217</time></trkpt><trkpt lat="56.3796508" lon="43.8372724"><time>2023-09-30T13:27:50.210</time></trkpt><trkpt lat="56.3796855" lon="43.8373380"><time>2023-09-30T13:27:53.203</time></trkpt><trkpt lat="56.3797203" lon="43.8373932"><time>2023-09-30T13:27:55.213</time></trkpt><trkpt lat="56.3797584" lon="43.8374739"><time>2023-09-30T13:27:57.217</time></trkpt><trkpt lat="56.3798000" lon="43.8375190"><time>2023-09-30T13:28:00.213</time></trkpt><trkpt lat="56.3798639" lon="43.8375155"><time>2023-09-30T13:28:03.207</time></trkpt><trkpt lat="56.3799095" lon="43.8374830"><time>2023-09-30T13:28:05.207</time></trkpt><trkpt lat="56.3798611" lon="43.8375461"><time>2023-09-30T13:28:12.213</time></trkpt><trkpt lat="56.3798662" lon="43.8376311"><time>2023-09-30T13:28:14.207</time></trkpt><trkpt lat="56.3799000" lon="43.8376845"><time>2023-09-30T13:28:16.217</time></trkpt><trkpt lat="56.3799457" lon="43.8377358"><time>2023-09-30T13:28:18.223</time></trkpt><trkpt lat="56.3800054" lon="43.8377983"><time>2023-09-30T13:28:20.223</time></trkpt><trkpt lat="56.3800619" lon="43.8378669"><time>2023-09-30T13:28:22.210</time></trkpt><trkpt lat="56.3801258" lon="43.8379256"><time>2023-09-30T13:28:24.217</time></trkpt><trkpt lat="56.3801753" lon="43.8380004"><time>2023-09-30T13:28:26.213</time></trkpt><trkpt lat="56.3802181" lon="43.8380720"><time>2023-09-30T13:28:28.210</time></trkpt><trkpt lat="56.3802594" lon="43.8381433"><time>2023-09-30T13:28:30.213</time></trkpt><trkpt lat="56.3803137" lon="43.8382335"><time>2023-09-30T13:28:33.197</time></trkpt><trkpt lat="56.3803597" lon="43.8383203"><time>2023-09-30T13:28:35.203</time></trkpt><trkpt lat="56.3804136" lon="43.8383990"><time>2023-09-30T13:28:37.217</time></trkpt><trkpt lat="56.3804604" lon="43.8384874"><time>2023-09-30T13:28:39.220</time></trkpt><trkpt lat="56.3805110" lon="43.8385549"><time>2023-09-30T13:28:41.213</time></trkpt><trkpt lat="56.3805732" lon="43.8386063"><time>2023-09-30T13:28:43.217</time></trkpt><trkpt lat="56.3806409" lon="43.8386389"><time>2023-09-30T13:28:45.243</time></trkpt><trkpt lat="56.3806719" lon="43.8386680"><time>2023-09-30T13:28:46.207</time></trkpt><trkpt lat="56.3807308" lon="43.8387317"><time>2023-09-30T13:28:48.203</time></trkpt><trkpt lat="56.3807997" lon="43.8387923"><time>2023-09-30T13:28:50.207</time></trkpt><trkpt lat="56.3808584" lon="43.8388417"><time>2023-09-30T13:28:52.207</time></trkpt><trkpt lat="56.3809189" lon="43.8388733"><time>2023-09-30T13:28:54.207</time></trkpt><trkpt lat="56.3809795" lon="43.8388790"><time>2023-09-30T13:28:56.207</time></trkpt><trkpt lat="56.3810281" lon="43.8388791"><time>2023-09-30T13:28:58.207</time></trkpt><trkpt lat="56.3810677" lon="43.8389358"><time>2023-09-30T13:29:00.197</time></trkpt><trkpt lat="56.3811248" lon="43.8389851"><time>2023-09-30T13:29:02.217</time></trkpt><trkpt lat="56.3811752" lon="43.8390295"><time>2023-09-30T13:29:04.207</time></trkpt><trkpt lat="56.3812295" lon="43.8390545"><time>2023-09-30T13:29:06.207</time></trkpt><trkpt lat="56.3813079" lon="43.8391122"><time>2023-09-30T13:29:08.213</time></trkpt><trkpt lat="56.3813822" lon="43.8391753"><time>2023-09-30T13:29:10.217</time></trkpt><trkpt lat="56.3814243" lon="43.8392049"><time>2023-09-30T13:29:12.227</time></trkpt><trkpt lat="56.3814545" lon="43.8392272"><time>2023-09-30T13:29:13.203</time></trkpt><trkpt lat="56.3815079" lon="43.8392835"><time>2023-09-30T13:29:15.207</time></trkpt><trkpt lat="56.3815492" lon="43.8393565"><time>2023-09-30T13:29:17.210</time></trkpt><trkpt lat="56.3815903" lon="43.8394195"><time>2023-09-30T13:29:19.217</time></trkpt><trkpt lat="56.3816473" lon="43.8394897"><time>2023-09-30T13:29:21.207</time></trkpt><trkpt lat="56.3817057" lon="43.8395373"><time>2023-09-30T13:29:23.207</time></trkpt><trkpt lat="56.3817777" lon="43.8396048"><time>2023-09-30T13:29:25.217</time></trkpt><trkpt lat="56.3818332" lon="43.8396821"><time>2023-09-30T13:29:27.233</time></trkpt><trkpt lat="56.3818582" lon="43.8397249"><time>2023-09-30T13:29:28.207</time></trkpt><trkpt lat="56.3819183" lon="43.8397781"><time>2023-09-30T13:29:30.203</time></trkpt><trkpt lat="56.3819902" lon="43.8397908"><time>2023-09-30T13:29:32.197</time></trkpt><trkpt lat="56.3820518" lon="43.8397887"><time>2023-09-30T13:29:34.207</time></trkpt><trkpt lat="56.3821125" lon="43.8397770"><time>2023-09-30T13:29:36.200</time></trkpt><trkpt lat="56.3821410" lon="43.8397124"><time>2023-09-30T13:29:38.193</time></trkpt><trkpt lat="56.3821680" lon="43.8396398"><time>2023-09-30T13:29:41.207</time></trkpt><trkpt lat="56.3822099" lon="43.8395888"><time>2023-09-30T13:29:43.207</time></trkpt><trkpt lat="56.3822709" lon="43.8395298"><time>2023-09-30T13:29:45.200</time></trkpt><trkpt lat="56.3823299" lon="43.8394613"><time>2023-09-30T13:29:47.210</time></trkpt><trkpt lat="56.3823689" lon="43.8393730"><time>2023-09-30T13:29:49.210</time></trkpt><trkpt lat="56.3823911" lon="43.8392470"><time>2023-09-30T13:29:51.210</time></trkpt><trkpt lat="56.3824382" lon="43.8391697"><time>2023-09-30T13:29:53.207</time></trkpt><trkpt lat="56.3825125" lon="43.8391292"><time>2023-09-30T13:29:55.217</time></trkpt><trkpt lat="56.3825560" lon="43.8390888"><time>2023-09-30T13:29:56.213</time></trkpt><trkpt lat="56.3826294" lon="43.8390314"><time>2023-09-30T13:29:58.197</time></trkpt><trkpt lat="56.3826927" lon="43.8389669"><time>2023-09-30T13:30:00.207</time></trkpt><trkpt lat="56.3827492" lon="43.8388870"><time>2023-09-30T13:30:02.227</time></trkpt><trkpt lat="56.3828035" lon="43.8387950"><time>2023-09-30T13:30:04.213</time></trkpt><trkpt lat="56.3828568" lon="43.8387033"><time>2023-09-30T13:30:06.230</time></trkpt><trkpt lat="56.3829131" lon="43.8386432"><time>2023-09-30T13:30:08.230</time></trkpt><trkpt lat="56.3829353" lon="43.8386074"><time>2023-09-30T13:30:09.213</time></trkpt><trkpt lat="56.3829720" lon="43.8385237"><time>2023-09-30T13:30:11.220</time></trkpt><trkpt lat="56.3830096" lon="43.8384444"><time>2023-09-30T13:30:13.200</time></trkpt><trkpt lat="56.3830591" lon="43.8383841"><time>2023-09-30T13:30:15.197</time></trkpt><trkpt lat="56.3831043" lon="43.8383110"><time>2023-09-30T13:30:17.213</time></trkpt><trkpt lat="56.3831258" lon="43.8382989"><time>2023-09-30T13:30:18.310</time></trkpt><trkpt lat="56.3831541" lon="43.8382024"><time>2023-09-30T13:30:20.193</time></trkpt><trkpt lat="56.3831798" lon="43.8381100"><time>2023-09-30T13:30:22.193</time></trkpt><trkpt lat="56.3832121" lon="43.8380526"><time>2023-09-30T13:30:24.197</time></trkpt><trkpt lat="56.3832457" lon="43.8379723"><time>2023-09-30T13:30:26.203</time></trkpt><trkpt lat="56.3832976" lon="43.8379003"><time>2023-09-30T13:30:28.197</time></trkpt><trkpt lat="56.3833629" lon="43.8378490"><time>2023-09-30T13:30:30.190</time></trkpt><trkpt lat="56.3834274" lon="43.8377977"><time>2023-09-30T13:30:32.203</time></trkpt><trkpt lat="56.3834839" lon="43.8377067"><time>2023-09-30T13:30:34.223</time></trkpt><trkpt lat="56.3835175" lon="43.8376581"><time>2023-09-30T13:30:35.357</time></trkpt><trkpt lat="56.3835312" lon="43.8375744"><time>2023-09-30T13:30:36.177</time></trkpt><trkpt lat="56.3835717" lon="43.8374416"><time>2023-09-30T13:30:38.197</time></trkpt><trkpt lat="56.3835884" lon="43.8373263"><time>2023-09-30T13:30:40.187</time></trkpt><trkpt lat="56.3835834" lon="43.8372146"><time>2023-09-30T13:30:42.200</time></trkpt></trkseg></trk></gpx>